Observation data for Lake Alan Henry on 03/23/2019      Previous  Date       Current Mesonet Observations  Soil Data  Daily Summary Page  Observations in Plain Language
KAHS 230500Z 20005KT 16/11 A2996 RMK A01 T01580106  RH  071%=      5-min Rain = 0
KAHS 230501Z 20007KT 16/11 A2996 RMK A01 T01570106  RH  071%=      5-min Rain = 0
KAHS 230502Z 22008KT 16/11 A2996 RMK A01 T01580107  RH  071%=      5-min Rain = 0
KAHS 230503Z 21006KT 16/11 A2996 RMK A01 T01590107  RH  071%=      5-min Rain = 0
KAHS 230504Z 22008KT 16/11 A2996 RMK A01 T01590107  RH  071%=      5-min Rain = 0
KAHS 230505Z 21006KT 16/11 A2996 RMK A01 T01590107  RH  071%=      5-min Rain = 0
KAHS 230506Z 21006KT 16/11 A2996 RMK A01 T01580107  RH  071%=      5-min Rain = 0
KAHS 230507Z 21008KT 16/11 A2996 RMK A01 T01590107  RH  071%=      5-min Rain = 0
KAHS 230508Z 22007KT 16/11 A2996 RMK A01 T01590107  RH  071%=      5-min Rain = 0
KAHS 230509Z 21006KT 16/11 A2996 RMK A01 T01580106  RH  071%=      5-min Rain = 0
KAHS 230510Z 21006KT 16/11 A2996 RMK A01 T01570106  RH  072%=      5-min Rain = 0
KAHS 230511Z 21006KT 16/11 A2996 RMK A01 T01570106  RH  072%=      5-min Rain = 0
KAHS 230512Z 21007KT 16/11 A2996 RMK A01 T01570107  RH  072%=      5-min Rain = 0
KAHS 230513Z 22007KT 16/11 A2996 RMK A01 T01590108  RH  072%=      5-min Rain = 0
KAHS 230514Z 22007KT 16/11 A2996 RMK A01 T01600107  RH  071%=      5-min Rain = 0
KAHS 230515Z 22007KT 16/11 A2996 RMK A01 T01590107  RH  071%=      5-min Rain = 0
KAHS 230516Z 21008KT 16/11 A2996 RMK A01 T01590107  RH  071%=      5-min Rain = 0
KAHS 230517Z 23008KT 16/11 A2996 RMK A01 T01590108  RH  071%=      5-min Rain = 0
KAHS 230518Z 22011KT 16/11 A2996 RMK A01 T01600108  RH  071%=      5-min Rain = 0
KAHS 230519Z 23009KT 16/11 A2996 RMK A01 T01610108  RH  071%=      5-min Rain = 0
KAHS 230520Z 22009KT 16/11 A2996 RMK A01 T01610108  RH  071%=      5-min Rain = 0
KAHS 230521Z 22009KT 16/11 A2997 RMK A01 T01610108  RH  071%=      5-min Rain = 0
KAHS 230522Z 22010KT 16/11 A2996 RMK A01 T01610109  RH  071%=      5-min Rain = 0
KAHS 230523Z 22009KT 16/11 A2996 RMK A01 T01610109  RH  071%=      5-min Rain = 0
KAHS 230524Z 22011KT 16/11 A2996 RMK A01 T01600109  RH  071%=      5-min Rain = 0
KAHS 230525Z 21008KT 16/11 A2996 RMK A01 T01610109  RH  071%=      5-min Rain = 0
KAHS 230526Z 22011KT 16/11 A2996 RMK A01 T01600109  RH  072%=      5-min Rain = 0
KAHS 230527Z 21012KT 16/11 A2996 RMK A01 T01610109  RH  072%=      5-min Rain = 0
KAHS 230528Z 22012G17KT 16/11 A2996 RMK A01 T01620110  RH  071%=      5-min Rain = 0
KAHS 230529Z 22009KT 16/11 A2996 RMK A01 T01620110  RH  071%=      5-min Rain = 0
KAHS 230530Z 22012KT 16/11 A2996 RMK A01 T01610110  RH  071%=      5-min Rain = 0
KAHS 230531Z 22010KT 16/11 A2996 RMK A01 T01610109  RH  071%=      5-min Rain = 0
KAHS 230532Z 22010KT 16/11 A2996 RMK A01 T01620110  RH  071%=      5-min Rain = 0
KAHS 230533Z 22011KT 16/11 A2996 RMK A01 T01610110  RH  071%=      5-min Rain = 0
KAHS 230534Z 21011KT 16/11 A2996 RMK A01 T01620110  RH  072%=      5-min Rain = 0
KAHS 230535Z 21009KT 16/11 A2996 RMK A01 T01620110  RH  071%=      5-min Rain = 0
KAHS 230536Z 21010KT 16/11 A2996 RMK A01 T01610110  RH  072%=      5-min Rain = 0
KAHS 230537Z 21011KT 16/11 A2996 RMK A01 T01600110  RH  072%=      5-min Rain = 0
KAHS 230538Z 22011KT 16/11 A2996 RMK A01 T01610111  RH  072%=      5-min Rain = 0
KAHS 230539Z 21014KT 16/11 A2996 RMK A01 T01610111  RH  072%=      5-min Rain = 0
KAHS 230540Z 21012G17KT 16/11 A2996 RMK A01 T01620111  RH  072%=      5-min Rain = 0
KAHS 230541Z 22011KT 16/11 A2996 RMK A01 T01620111  RH  071%=      5-min Rain = 0
KAHS 230542Z 22011KT 16/11 A2996 RMK A01 T01620111  RH  072%=      5-min Rain = 0
KAHS 230543Z 21013KT 16/11 A2996 RMK A01 T01620111  RH  072%=      5-min Rain = 0
KAHS 230544Z 21013KT 16/11 A2996 RMK A01 T01620111  RH  072%=      5-min Rain = 0
KAHS 230545Z 21012KT 16/11 A2996 RMK A01 T01620111  RH  072%=      5-min Rain = 0
KAHS 230546Z 20011G16KT 16/11 A2996 RMK A01 T01630111  RH  071%=      5-min Rain = 0
KAHS 230547Z 20011KT 16/11 A2996 RMK A01 T01620111  RH  072%=      5-min Rain = 0
KAHS 230548Z 21009KT 16/11 A2996 RMK A01 T01620111  RH  072%=      5-min Rain = 0
KAHS 230549Z 20009KT 16/11 A2996 RMK A01 T01610111  RH  072%=      5-min Rain = 0
KAHS 230550Z 20012KT 16/11 A2996 RMK A01 T01600111  RH  073%=      5-min Rain = 0
KAHS 230551Z 20012KT 16/11 A2996 RMK A01 T01610112  RH  073%=      5-min Rain = 0
KAHS 230552Z 20012KT 16/11 A2996 RMK A01 T01610111  RH  072%=      5-min Rain = 0
KAHS 230553Z 20012KT 16/11 A2996 RMK A01 T01610112  RH  073%=      5-min Rain = 0
KAHS 230554Z 21012KT 16/11 A2996 RMK A01 T01610112  RH  072%=      5-min Rain = 0
KAHS 230555Z 20013KT 16/11 A2996 RMK A01 T01610112  RH  072%=      5-min Rain = 0
KAHS 230556Z 20012G17KT 16/11 A2996 RMK A01 T01610112  RH  072%=      5-min Rain = 0
KAHS 230557Z 21012KT 16/11 A2996 RMK A01 T01610112  RH  073%=      5-min Rain = 0
KAHS 230558Z 21012KT 16/11 A2996 RMK A01 T01610112  RH  072%=      5-min Rain = 0
KAHS 230559Z 21011KT 16/11 A2996 RMK A01 T01610112  RH  072%=      5-min Rain = 0
KAHS 230600Z 21011KT 16/11 A2996 RMK A01 T01610112  RH  073%=      5-min Rain = 0
KAHS 230601Z 20009KT 16/11 A2996 RMK A01 T01610112  RH  073%=      5-min Rain = 0
KAHS 230602Z 21011KT 16/11 A2996 RMK A01 T01600112  RH  073%=      5-min Rain = 0
KAHS 230603Z 20012KT 16/11 A2996 RMK A01 T01600112  RH  073%=      5-min Rain = 0
KAHS 230604Z 20010KT 16/11 A2996 RMK A01 T01600112  RH  073%=      5-min Rain = 0
KAHS 230605Z 21011G16KT 16/11 A2996 RMK A01 T01600112  RH  073%=      5-min Rain = 0
KAHS 230606Z 21009KT 16/11 A2996 RMK A01 T01600112  RH  073%=      5-min Rain = 0
KAHS 230607Z 21011KT 16/11 A2996 RMK A01 T01590112  RH  073%=      5-min Rain = 0
KAHS 230608Z 20011KT 16/11 A2996 RMK A01 T01590112  RH  074%=      5-min Rain = 0
KAHS 230609Z 20012KT 16/11 A2996 RMK A01 T01590112  RH  074%=      5-min Rain = 0
KAHS 230610Z 20010KT 16/11 A2996 RMK A01 T01600113  RH  074%=      5-min Rain = 0
KAHS 230611Z 20011KT 16/11 A2996 RMK A01 T01600112  RH  073%=      5-min Rain = 0
KAHS 230612Z 21009KT 16/11 A2996 RMK A01 T01600112  RH  073%=      5-min Rain = 0
KAHS 230613Z 20009KT 16/11 A2996 RMK A01 T01590112  RH  074%=      5-min Rain = 0
KAHS 230614Z 20011KT 16/11 A2996 RMK A01 T01580112  RH  074%=      5-min Rain = 0
KAHS 230615Z 21009KT 16/11 A2996 RMK A01 T01590113  RH  074%=      5-min Rain = 0
KAHS 230616Z 21008KT 16/11 A2996 RMK A01 T01580112  RH  074%=      5-min Rain = 0
KAHS 230617Z 21011KT 16/11 A2996 RMK A01 T01570112  RH  074%=      5-min Rain = 0
KAHS 230618Z 20010KT 16/11 A2996 RMK A01 T01570112  RH  074%=      5-min Rain = 0
KAHS 230619Z 20010KT 16/11 A2996 RMK A01 T01580112  RH  074%=      5-min Rain = 0
KAHS 230620Z 21009KT 16/11 A2996 RMK A01 T01580112  RH  074%=      5-min Rain = 0
KAHS 230621Z 20012KT 16/11 A2996 RMK A01 T01580113  RH  074%=      5-min Rain = 0
KAHS 230622Z 20011KT 16/11 A2996 RMK A01 T01590113  RH  074%=      5-min Rain = 0
KAHS 230623Z 20009KT 16/11 A2996 RMK A01 T01590113  RH  074%=      5-min Rain = 0
KAHS 230624Z 20012KT 16/11 A2996 RMK A01 T01580113  RH  074%=      5-min Rain = 0
KAHS 230625Z 21012KT 16/11 A2996 RMK A01 T01590113  RH  074%=      5-min Rain = 0
KAHS 230626Z 20011KT 16/11 A2996 RMK A01 T01590113  RH  074%=      5-min Rain = 0
KAHS 230627Z 20011KT 16/11 A2996 RMK A01 T01590113  RH  074%=      5-min Rain = 0
KAHS 230628Z 20010KT 16/11 A2996 RMK A01 T01590113  RH  074%=      5-min Rain = 0
KAHS 230629Z 20009KT 16/11 A2996 RMK A01 T01590113  RH  074%=      5-min Rain = 0
KAHS 230630Z 20012KT 16/11 A2996 RMK A01 T01580112  RH  074%=      5-min Rain = 0
KAHS 230631Z 20008KT 16/11 A2996 RMK A01 T01580113  RH  074%=      5-min Rain = 0
KAHS 230632Z 20008KT 16/11 A2996 RMK A01 T01570112  RH  075%=      5-min Rain = 0
KAHS 230633Z 21010KT 16/11 A2996 RMK A01 T01560113  RH  075%=      5-min Rain = 0
KAHS 230634Z 20008KT 16/11 A2996 RMK A01 T01570113  RH  075%=      5-min Rain = 0
KAHS 230635Z 21013KT 16/11 A2996 RMK A01 T01570113  RH  075%=      5-min Rain = 0
KAHS 230636Z 21011KT 16/11 A2996 RMK A01 T01570113  RH  075%=      5-min Rain = 0
KAHS 230637Z 21011KT 16/11 A2996 RMK A01 T01570113  RH  075%=      5-min Rain = 0
KAHS 230638Z 21009KT 16/11 A2996 RMK A01 T01570113  RH  075%=      5-min Rain = 0
KAHS 230639Z 21008KT 16/11 A2996 RMK A01 T01560113  RH  075%=      5-min Rain = 0
KAHS 230640Z 21009KT 16/11 A2996 RMK A01 T01560112  RH  075%=      5-min Rain = 0
KAHS 230641Z 21010KT 16/11 A2996 RMK A01 T01550112  RH  076%=      5-min Rain = 0
KAHS 230642Z 21010KT 16/11 A2996 RMK A01 T01560112  RH  075%=      5-min Rain = 0
KAHS 230643Z 21010KT 16/11 A2996 RMK A01 T01560113  RH  076%=      5-min Rain = 0
KAHS 230644Z 21010KT 16/11 A2996 RMK A01 T01550112  RH  076%=      5-min Rain = 0
KAHS 230645Z 21009KT 16/11 A2996 RMK A01 T01550112  RH  076%=      5-min Rain = 0
KAHS 230646Z 21011KT 16/11 A2996 RMK A01 T01550112  RH  076%=      5-min Rain = 0
KAHS 230647Z 21011KT 16/11 A2996 RMK A01 T01550112  RH  076%=      5-min Rain = 0
KAHS 230648Z 22008KT 16/11 A2996 RMK A01 T01550112  RH  076%=      5-min Rain = 0
KAHS 230649Z 22008KT 15/11 A2996 RMK A01 T01540112  RH  076%=      5-min Rain = 0
KAHS 230650Z 22008KT 15/11 A2996 RMK A01 T01540112  RH  076%=      5-min Rain = 0
KAHS 230651Z 21008KT 15/11 A2996 RMK A01 T01540113  RH  077%=      5-min Rain = 0
KAHS 230652Z 21007KT 15/11 A2996 RMK A01 T01540113  RH  076%=      5-min Rain = 0
KAHS 230653Z 22008KT 15/11 A2996 RMK A01 T01540113  RH  077%=      5-min Rain = 0
KAHS 230654Z 22009KT 15/11 A2996 RMK A01 T01540113  RH  077%=      5-min Rain = 0
KAHS 230655Z 22009KT 15/11 A2996 RMK A01 T01540113  RH  076%=      5-min Rain = 0
KAHS 230656Z 22008KT 15/11 A2996 RMK A01 T01540113  RH  076%=      5-min Rain = 0
KAHS 230657Z 22008KT 15/11 A2996 RMK A01 T01540113  RH  076%=      5-min Rain = 0
KAHS 230658Z 22009KT 15/11 A2996 RMK A01 T01540113  RH  077%=      5-min Rain = 0
KAHS 230659Z 21009KT 15/11 A2996 RMK A01 T01540113  RH  077%=      5-min Rain = 0
KAHS 230700Z 22007KT 16/11 A2996 RMK A01 T01550114  RH  076%=      5-min Rain = 0
KAHS 230701Z 22008KT 15/11 A2996 RMK A01 T01540113  RH  076%=      5-min Rain = 0
KAHS 230702Z 22009KT 15/11 A2996 RMK A01 T01540114  RH  077%=      5-min Rain = 0
KAHS 230703Z 21009KT 16/11 A2996 RMK A01 T01550114  RH  077%=      5-min Rain = 0
KAHS 230704Z 22011KT 16/11 A2996 RMK A01 T01550114  RH  076%=      5-min Rain = 0
KAHS 230705Z 22011KT 16/11 A2996 RMK A01 T01560114  RH  076%=      5-min Rain = 0
KAHS 230706Z 21009KT 16/11 A2996 RMK A01 T01570114  RH  076%=      5-min Rain = 0
KAHS 230707Z 22008KT 16/11 A2996 RMK A01 T01560114  RH  076%=      5-min Rain = 0
KAHS 230708Z 21008KT 16/11 A2996 RMK A01 T01560114  RH  076%=      5-min Rain = 0
KAHS 230709Z 21010KT 16/11 A2996 RMK A01 T01550114  RH  076%=      5-min Rain = 0
KAHS 230710Z 20010KT 16/11 A2996 RMK A01 T01550114  RH  076%=      5-min Rain = 0
KAHS 230711Z 21009KT 16/11 A2996 RMK A01 T01550114  RH  077%=      5-min Rain = 0
KAHS 230712Z 21009KT 16/11 A2996 RMK A01 T01550114  RH  077%=      5-min Rain = 0
KAHS 230713Z 20010KT 15/11 A2996 RMK A01 T01540114  RH  077%=      5-min Rain = 0
KAHS 230714Z 21010KT 16/11 A2996 RMK A01 T01550114  RH  077%=      5-min Rain = 0
KAHS 230715Z 21009KT 16/11 A2996 RMK A01 T01550114  RH  077%=      5-min Rain = 0
KAHS 230716Z 21010KT 16/11 A2996 RMK A01 T01550114  RH  077%=      5-min Rain = 0
KAHS 230717Z 22010KT 15/11 A2996 RMK A01 T01540114  RH  077%=      5-min Rain = 0
KAHS 230718Z 21010KT 15/11 A2996 RMK A01 T01540114  RH  077%=      5-min Rain = 0
KAHS 230719Z 21010KT 15/11 A2996 RMK A01 T01540114  RH  077%=      5-min Rain = 0
KAHS 230720Z 21008KT 15/11 A2996 RMK A01 T01540114  RH  077%=      5-min Rain = 0
KAHS 230721Z 21007KT 15/11 A2996 RMK A01 T01540114  RH  077%=      5-min Rain = 0
KAHS 230722Z 21007KT 15/11 A2996 RMK A01 T01540114  RH  077%=      5-min Rain = 0
KAHS 230723Z 21007KT 15/12 A2996 RMK A01 T01530115  RH  078%=      5-min Rain = 0
KAHS 230724Z 21007KT 15/11 A2996 RMK A01 T01530114  RH  078%=      5-min Rain = 0
KAHS 230725Z 21006KT 15/11 A2996 RMK A01 T01530114  RH  078%=      5-min Rain = 0
KAHS 230726Z 21005KT 15/11 A2996 RMK A01 T01520114  RH  078%=      5-min Rain = 0
KAHS 230727Z 21005KT 15/11 A2996 RMK A01 T01520114  RH  078%=      5-min Rain = 0
KAHS 230728Z 21007KT 15/12 A2996 RMK A01 T01520115  RH  078%=      5-min Rain = 0
KAHS 230729Z 20006KT 15/12 A2996 RMK A01 T01520115  RH  078%=      5-min Rain = 0
KAHS 230730Z 21007KT 15/12 A2996 RMK A01 T01520115  RH  078%=      5-min Rain = 0
KAHS 230731Z 22006KT 15/12 A2996 RMK A01 T01520115  RH  078%=      5-min Rain = 0
KAHS 230732Z 21007KT 15/12 A2996 RMK A01 T01530115  RH  078%=      5-min Rain = 0
KAHS 230733Z 21006KT 15/12 A2996 RMK A01 T01540115  RH  078%=      5-min Rain = 0
KAHS 230734Z 21006KT 15/12 A2996 RMK A01 T01530115  RH  078%=      5-min Rain = 0
KAHS 230735Z 21006KT 15/12 A2996 RMK A01 T01530115  RH  078%=      5-min Rain = 0
KAHS 230736Z 21008KT 15/12 A2996 RMK A01 T01530115  RH  078%=      5-min Rain = 0
KAHS 230737Z 21005KT 15/12 A2996 RMK A01 T01540115  RH  078%=      5-min Rain = 0
KAHS 230738Z 20005KT 15/12 A2996 RMK A01 T01530115  RH  078%=      5-min Rain = 0
KAHS 230739Z 21005KT 15/12 A2996 RMK A01 T01530115  RH  078%=      5-min Rain = 0
KAHS 230740Z 21005KT 15/11 A2996 RMK A01 T01520114  RH  078%=      5-min Rain = 0
KAHS 230741Z 21005KT 15/11 A2996 RMK A01 T01520114  RH  078%=      5-min Rain = 0
KAHS 230742Z 21005KT 15/12 A2996 RMK A01 T01520115  RH  079%=      5-min Rain = 0
KAHS 230743Z 21005KT 15/12 A2996 RMK A01 T01510115  RH  079%=      5-min Rain = 0
KAHS 230744Z 21004KT 15/11 A2996 RMK A01 T01510114  RH  079%=      5-min Rain = 0
KAHS 230745Z 22005KT 15/12 A2996 RMK A01 T01510115  RH  079%=      5-min Rain = 0
KAHS 230746Z 20004KT 15/12 A2996 RMK A01 T01510115  RH  079%=      5-min Rain = 0
KAHS 230747Z 20004KT 15/12 A2996 RMK A01 T01510115  RH  079%=      5-min Rain = 0
KAHS 230748Z 21005KT 15/12 A2996 RMK A01 T01510115  RH  079%=      5-min Rain = 0
KAHS 230749Z 21006KT 15/12 A2996 RMK A01 T01510115  RH  079%=      5-min Rain = 0
KAHS 230750Z 21005KT 15/12 A2996 RMK A01 T01510115  RH  079%=      5-min Rain = 0
KAHS 230751Z 20006KT 15/11 A2996 RMK A01 T01510114  RH  079%=      5-min Rain = 0
KAHS 230752Z 21006KT 15/11 A2996 RMK A01 T01500114  RH  079%=      5-min Rain = 0
KAHS 230753Z 20005KT 15/11 A2996 RMK A01 T01500114  RH  079%=      5-min Rain = 0
KAHS 230754Z 21005KT 15/11 A2996 RMK A01 T01490114  RH  079%=      5-min Rain = 0
KAHS 230755Z 21008KT 15/11 A2996 RMK A01 T01490114  RH  080%=      5-min Rain = 0
KAHS 230756Z 19007KT 15/12 A2996 RMK A01 T01490115  RH  080%=      5-min Rain = 0
KAHS 230757Z 20006KT 15/11 A2996 RMK A01 T01500114  RH  079%=      5-min Rain = 0
KAHS 230758Z 20008KT 15/11 A2996 RMK A01 T01490114  RH  079%=      5-min Rain = 0
KAHS 230759Z 20005KT 15/11 A2996 RMK A01 T01490114  RH  079%=      5-min Rain = 0
KAHS 230800Z 19007KT 15/11 A2996 RMK A01 T01480113  RH  080%=      5-min Rain = 0
KAHS 230801Z 19006KT 15/11 A2996 RMK A01 T01470113  RH  080%=      5-min Rain = 0
KAHS 230802Z 19006KT 15/11 A2996 RMK A01 T01470113  RH  080%=      5-min Rain = 0
KAHS 230803Z 20009KT 15/11 A2996 RMK A01 T01460114  RH  081%=      5-min Rain = 0
KAHS 230804Z 20007KT 15/11 A2995 RMK A01 T01470114  RH  081%=      5-min Rain = 0
KAHS 230805Z 20006KT 15/11 A2996 RMK A01 T01470114  RH  081%=      5-min Rain = 0
KAHS 230806Z 20006KT 15/11 A2996 RMK A01 T01470114  RH  081%=      5-min Rain = 0
KAHS 230807Z 19006KT 15/11 A2996 RMK A01 T01460114  RH  081%=      5-min Rain = 0
KAHS 230808Z 19007KT 15/11 A2996 RMK A01 T01460114  RH  081%=      5-min Rain = 0
KAHS 230809Z 20008KT 15/11 A2996 RMK A01 T01450113  RH  081%=      5-min Rain = 0
KAHS 230810Z 21008KT 15/11 A2996 RMK A01 T01450114  RH  082%=      5-min Rain = 0
KAHS 230811Z 21008KT 15/12 A2995 RMK A01 T01460115  RH  082%=      5-min Rain = 0
KAHS 230812Z 21009KT 15/12 A2996 RMK A01 T01470115  RH  081%=      5-min Rain = 0
KAHS 230813Z 21008KT 15/11 A2996 RMK A01 T01460114  RH  081%=      5-min Rain = 0
KAHS 230814Z 21008KT 15/12 A2996 RMK A01 T01460115  RH  082%=      5-min Rain = 0
KAHS 230815Z 21008KT 15/12 A2996 RMK A01 T01460115  RH  082%=      5-min Rain = 0
KAHS 230816Z 21008KT 15/12 A2996 RMK A01 T01460115  RH  082%=      5-min Rain = 0
KAHS 230817Z 20007KT 15/12 A2996 RMK A01 T01460116  RH  082%=      5-min Rain = 0
KAHS 230818Z 20008KT 15/12 A2996 RMK A01 T01460115  RH  082%=      5-min Rain = 0
KAHS 230819Z 19008KT 15/12 A2996 RMK A01 T01460115  RH  082%=      5-min Rain = 0
KAHS 230820Z 20009KT 15/12 A2995 RMK A01 T01460116  RH  082%=      5-min Rain = 0
KAHS 230821Z 20008KT 15/12 A2995 RMK A01 T01460115  RH  082%=      5-min Rain = 0
KAHS 230822Z 20008KT 15/12 A2996 RMK A01 T01450115  RH  082%=      5-min Rain = 0
KAHS 230823Z 20010KT 15/12 A2995 RMK A01 T01450116  RH  083%=      5-min Rain = 0
KAHS 230824Z 20010KT 15/12 A2995 RMK A01 T01470118  RH  082%=      5-min Rain = 0
KAHS 230825Z 21009KT 15/12 A2995 RMK A01 T01480117  RH  082%=      5-min Rain = 0
KAHS 230826Z 21008KT 15/12 A2995 RMK A01 T01480117  RH  081%=      5-min Rain = 0
KAHS 230827Z 20009KT 15/12 A2995 RMK A01 T01480117  RH  082%=      5-min Rain = 0
KAHS 230828Z 20008KT 15/12 A2995 RMK A01 T01470116  RH  082%=      5-min Rain = 0
KAHS 230829Z 20011KT 15/12 A2995 RMK A01 T01460116  RH  082%=      5-min Rain = 0
KAHS 230830Z 21010KT 15/12 A2995 RMK A01 T01480118  RH  082%=      5-min Rain = 0
KAHS 230831Z 20009KT 15/12 A2995 RMK A01 T01490118  RH  082%=      5-min Rain = 0
KAHS 230832Z 20008KT 15/12 A2995 RMK A01 T01480117  RH  081%=      5-min Rain = 0
KAHS 230833Z 20009KT 15/12 A2995 RMK A01 T01470116  RH  082%=      5-min Rain = 0
KAHS 230834Z 20009KT 15/12 A2995 RMK A01 T01470117  RH  082%=      5-min Rain = 0
KAHS 230835Z 20009KT 15/12 A2995 RMK A01 T01460116  RH  082%=      5-min Rain = 0
KAHS 230836Z 20009KT 15/12 A2995 RMK A01 T01460116  RH  083%=      5-min Rain = 0
KAHS 230837Z 20008KT 15/12 A2995 RMK A01 T01450116  RH  083%=      5-min Rain = 0
KAHS 230838Z 20009KT 15/12 A2995 RMK A01 T01450116  RH  083%=      5-min Rain = 0
KAHS 230839Z 20008KT 14/12 A2995 RMK A01 T01440116  RH  083%=      5-min Rain = 0
KAHS 230840Z 20010KT 14/12 A2995 RMK A01 T01440116  RH  083%=      5-min Rain = 0
KAHS 230841Z 20008KT 14/12 A2995 RMK A01 T01440116  RH  084%=      5-min Rain = 0
KAHS 230842Z 20008KT 14/12 A2995 RMK A01 T01430116  RH  084%=      5-min Rain = 0
KAHS 230843Z 20008KT 14/12 A2995 RMK A01 T01430117  RH  084%=      5-min Rain = 0
KAHS 230844Z 20008KT 14/12 A2995 RMK A01 T01440117  RH  084%=      5-min Rain = 0
KAHS 230845Z 21009KT 14/12 A2995 RMK A01 T01430116  RH  084%=      5-min Rain = 0
KAHS 230846Z 20013G18KT 14/12 A2995 RMK A01 T01430117  RH  084%=      5-min Rain = 0
KAHS 230847Z 22013KT 15/12 A2994 RMK A01 T01480122  RH  084%=      5-min Rain = 0
KAHS 230848Z 22011KT 15/12 A2995 RMK A01 T01510120  RH  082%=      5-min Rain = 0
KAHS 230849Z 20009KT 15/12 A2995 RMK A01 T01510119  RH  081%=      5-min Rain = 0
KAHS 230850Z 20007KT 15/12 A2995 RMK A01 T01490118  RH  081%=      5-min Rain = 0
KAHS 230851Z 20009KT 15/12 A2994 RMK A01 T01480118  RH  082%=      5-min Rain = 0
KAHS 230852Z 20010KT 15/12 A2994 RMK A01 T01480118  RH  083%=      5-min Rain = 0
KAHS 230853Z 21011KT 15/12 A2994 RMK A01 T01490119  RH  083%=      5-min Rain = 0
KAHS 230854Z 20011KT 15/12 A2994 RMK A01 T01500119  RH  082%=      5-min Rain = 0
KAHS 230855Z 20009KT 15/12 A2994 RMK A01 T01490119  RH  082%=      5-min Rain = 0
KAHS 230856Z 20009KT 15/12 A2994 RMK A01 T01490119  RH  082%=      5-min Rain = 0
KAHS 230857Z 20008KT 15/12 A2994 RMK A01 T01480118  RH  083%=      5-min Rain = 0
KAHS 230858Z 20010KT 15/12 A2994 RMK A01 T01470118  RH  083%=      5-min Rain = 0
KAHS 230859Z 20009KT 15/12 A2994 RMK A01 T01470119  RH  083%=      5-min Rain = 0
KAHS 230900Z 20010KT 15/12 A2994 RMK A01 T01470119  RH  083%=      5-min Rain = 0
KAHS 230901Z 19010KT 15/12 A2994 RMK A01 T01470119  RH  083%=      5-min Rain = 0
KAHS 230902Z 20009KT 15/12 A2994 RMK A01 T01470119  RH  083%=      5-min Rain = 0
KAHS 230903Z 20007KT 15/12 A2994 RMK A01 T01460118  RH  083%=      5-min Rain = 0
KAHS 230904Z 20008KT 15/12 A2994 RMK A01 T01450117  RH  084%=      5-min Rain = 0
KAHS 230905Z 20008KT 14/12 A2994 RMK A01 T01440117  RH  084%=      5-min Rain = 0
KAHS 230906Z 20007KT 14/12 A2994 RMK A01 T01430117  RH  084%=      5-min Rain = 0
KAHS 230907Z 20006KT 14/12 A2994 RMK A01 T01430117  RH  084%=      5-min Rain = 0
KAHS 230908Z 21006KT 14/12 A2994 RMK A01 T01410116  RH  085%=      5-min Rain = 0
KAHS 230909Z 20006KT 14/12 A2994 RMK A01 T01410116  RH  085%=      5-min Rain = 0
KAHS 230910Z 21006KT 14/12 A2994 RMK A01 T01400116  RH  085%=      5-min Rain = 0
KAHS 230911Z 20006KT 14/12 A2994 RMK A01 T01390115  RH  085%=      5-min Rain = 0
KAHS 230912Z 20007KT 14/12 A2994 RMK A01 T01390116  RH  086%=      5-min Rain = 0
KAHS 230913Z 20006KT 14/12 A2994 RMK A01 T01380115  RH  086%=      5-min Rain = 0
KAHS 230914Z 21007KT 14/12 A2994 RMK A01 T01380115  RH  086%=      5-min Rain = 0
KAHS 230915Z 21007KT 14/12 A2994 RMK A01 T01380115  RH  086%=      5-min Rain = 0
KAHS 230916Z 20008KT 14/12 A2994 RMK A01 T01380115  RH  086%=      5-min Rain = 0
KAHS 230917Z 21007KT 14/12 A2994 RMK A01 T01380116  RH  087%=      5-min Rain = 0
KAHS 230918Z 21007KT 14/12 A2994 RMK A01 T01380116  RH  087%=      5-min Rain = 0
KAHS 230919Z 20008KT 14/12 A2994 RMK A01 T01380116  RH  087%=      5-min Rain = 0
KAHS 230920Z 21008KT 14/12 A2994 RMK A01 T01390117  RH  086%=      5-min Rain = 0
KAHS 230921Z 21007KT 14/12 A2994 RMK A01 T01390116  RH  086%=      5-min Rain = 0
KAHS 230922Z 22007KT 14/12 A2994 RMK A01 T01390116  RH  086%=      5-min Rain = 0
KAHS 230923Z 22010KT 14/12 A2994 RMK A01 T01380115  RH  086%=      5-min Rain = 0
KAHS 230924Z 21009KT 14/12 A2994 RMK A01 T01390117  RH  087%=      5-min Rain = 0
KAHS 230925Z 21009KT 14/12 A2994 RMK A01 T01390116  RH  086%=      5-min Rain = 0
KAHS 230926Z 21009KT 14/12 A2994 RMK A01 T01390117  RH  086%=      5-min Rain = 0
KAHS 230927Z 21008KT 14/12 A2994 RMK A01 T01390116  RH  086%=      5-min Rain = 0
KAHS 230928Z 21008KT 14/12 A2994 RMK A01 T01390116  RH  086%=      5-min Rain = 0
KAHS 230929Z 22008KT 14/12 A2994 RMK A01 T01390116  RH  086%=      5-min Rain = 0
KAHS 230930Z 22008KT 14/12 A2994 RMK A01 T01380116  RH  086%=      5-min Rain = 0
KAHS 230931Z 22008KT 14/12 A2994 RMK A01 T01380116  RH  087%=      5-min Rain = 0
KAHS 230932Z 22009KT 14/12 A2994 RMK A01 T01390117  RH  087%=      5-min Rain = 0
KAHS 230933Z 22008KT 14/12 A2994 RMK A01 T01390117  RH  087%=      5-min Rain = 0
KAHS 230934Z 22009KT 14/12 A2994 RMK A01 T01400118  RH  087%=      5-min Rain = 0
KAHS 230935Z 22009KT 14/12 A2994 RMK A01 T01400117  RH  087%=      5-min Rain = 0
KAHS 230936Z 22009KT 14/12 A2994 RMK A01 T01400118  RH  087%=      5-min Rain = 0
KAHS 230937Z 22007KT 14/12 A2994 RMK A01 T01400118  RH  086%=      5-min Rain = 0
KAHS 230938Z 22008KT 14/12 A2993 RMK A01 T01400118  RH  087%=      5-min Rain = 0
KAHS 230939Z 22009KT 14/12 A2994 RMK A01 T01400118  RH  087%=      5-min Rain = 0
KAHS 230940Z 22009KT 14/12 A2993 RMK A01 T01400119  RH  087%=      5-min Rain = 0
KAHS 230941Z 22008KT 14/12 A2993 RMK A01 T01410118  RH  087%=      5-min Rain = 0
KAHS 230942Z 22007KT 14/12 A2993 RMK A01 T01410118  RH  086%=      5-min Rain = 0
KAHS 230943Z 22007KT 14/12 A2993 RMK A01 T01400118  RH  087%=      5-min Rain = 0
KAHS 230944Z 22008KT 14/12 A2993 RMK A01 T01400118  RH  087%=      5-min Rain = 0
KAHS 230945Z 23008KT 14/12 A2994 RMK A01 T01390118  RH  087%=      5-min Rain = 0
KAHS 230946Z 23007KT 14/12 A2994 RMK A01 T01390118  RH  087%=      5-min Rain = 0
KAHS 230947Z 23007KT 14/12 A2994 RMK A01 T01380118  RH  087%=      5-min Rain = 0
KAHS 230948Z 23007KT 14/12 A2994 RMK A01 T01390118  RH  088%=      5-min Rain = 0
KAHS 230949Z 23007KT 14/12 A2994 RMK A01 T01380118  RH  087%=      5-min Rain = 0
KAHS 230950Z 23008KT 14/12 A2994 RMK A01 T01380118  RH  088%=      5-min Rain = 0
KAHS 230951Z 24008KT 14/12 A2994 RMK A01 T01390119  RH  088%=      5-min Rain = 0
KAHS 230952Z 24008KT 14/12 A2994 RMK A01 T01400119  RH  087%=      5-min Rain = 0
KAHS 230953Z 23008KT 14/12 A2994 RMK A01 T01390118  RH  087%=      5-min Rain = 0
KAHS 230954Z 24008KT 14/12 A2994 RMK A01 T01390119  RH  088%=      5-min Rain = 0
KAHS 230955Z 24007KT 14/12 A2994 RMK A01 T01390119  RH  087%=      5-min Rain = 0
KAHS 230956Z 24008KT 14/12 A2994 RMK A01 T01390118  RH  087%=      5-min Rain = 0
KAHS 230957Z 24007KT 14/12 A2994 RMK A01 T01380118  RH  088%=      5-min Rain = 0
KAHS 230958Z 24008KT 14/12 A2994 RMK A01 T01380119  RH  088%=      5-min Rain = 0
KAHS 230959Z 24008KT 14/12 A2994 RMK A01 T01380118  RH  088%=      5-min Rain = 0
KAHS 231000Z 24007KT 14/12 A2994 RMK A01 T01390119  RH  088%=      5-min Rain = 0
KAHS 231001Z 23008KT 14/12 A2994 RMK A01 T01380118  RH  088%=      5-min Rain = 0
KAHS 231002Z 23009KT 14/12 A2994 RMK A01 T01380118  RH  088%=      5-min Rain = 0
KAHS 231003Z 23008KT 14/12 A2994 RMK A01 T01380118  RH  088%=      5-min Rain = 0
KAHS 231004Z 23009KT 14/12 A2994 RMK A01 T01380118  RH  088%=      5-min Rain = 0
KAHS 231005Z 23009KT 14/12 A2994 RMK A01 T01370118  RH  088%=      5-min Rain = 0
KAHS 231006Z 22010KT 14/12 A2994 RMK A01 T01370118  RH  088%=      5-min Rain = 0
KAHS 231007Z 22008KT 14/12 A2994 RMK A01 T01370119  RH  089%=      5-min Rain = 0
KAHS 231008Z 22009KT 14/12 A2994 RMK A01 T01370118  RH  088%=      5-min Rain = 0
KAHS 231009Z 22009KT 14/12 A2994 RMK A01 T01370118  RH  088%=      5-min Rain = 0
KAHS 231010Z 22009KT 14/12 A2994 RMK A01 T01370118  RH  089%=      5-min Rain = 0
KAHS 231011Z 22009KT 14/12 A2994 RMK A01 T01370119  RH  089%=      5-min Rain = 0
KAHS 231012Z 22009KT 14/12 A2994 RMK A01 T01370118  RH  088%=      5-min Rain = 0
KAHS 231013Z 22009KT 14/12 A2994 RMK A01 T01370118  RH  088%=      5-min Rain = 0
KAHS 231014Z 22009KT 14/12 A2994 RMK A01 T01370119  RH  089%=      5-min Rain = 0
KAHS 231015Z 22009KT 14/12 A2994 RMK A01 T01370119  RH  089%=      5-min Rain = 0
KAHS 231016Z 23010KT 14/12 A2994 RMK A01 T01380119  RH  089%=      5-min Rain = 0
KAHS 231017Z 23008KT 14/12 A2994 RMK A01 T01380119  RH  088%=      5-min Rain = 0
KAHS 231018Z 23008KT 14/12 A2994 RMK A01 T01370118  RH  088%=      5-min Rain = 0
KAHS 231019Z 23008KT 14/12 A2994 RMK A01 T01360118  RH  089%=      5-min Rain = 0
KAHS 231020Z 23008KT 14/12 A2994 RMK A01 T01360118  RH  089%=      5-min Rain = 0
KAHS 231021Z 23008KT 14/12 A2994 RMK A01 T01360118  RH  089%=      5-min Rain = 0
KAHS 231022Z 22009KT 14/12 A2994 RMK A01 T01360118  RH  089%=      5-min Rain = 0
KAHS 231023Z 23008KT 14/12 A2994 RMK A01 T01360119  RH  089%=      5-min Rain = 0
KAHS 231024Z 22008KT 14/12 A2994 RMK A01 T01370119  RH  089%=      5-min Rain = 0
KAHS 231025Z 22009KT 14/12 A2994 RMK A01 T01360119  RH  089%=      5-min Rain = 0
KAHS 231026Z 23009KT 14/12 A2994 RMK A01 T01370119  RH  089%=      5-min Rain = 0
KAHS 231027Z 22008KT 14/12 A2994 RMK A01 T01370119  RH  089%=      5-min Rain = 0
KAHS 231028Z 22009KT 14/12 A2994 RMK A01 T01370119  RH  089%=      5-min Rain = 0
KAHS 231029Z 23009KT 14/12 A2995 RMK A01 T01370119  RH  089%=      5-min Rain = 0
KAHS 231030Z 23008KT 14/12 A2995 RMK A01 T01380120  RH  089%=      5-min Rain = 0
KAHS 231031Z 23008KT 14/12 A2995 RMK A01 T01380119  RH  089%=      5-min Rain = 0
KAHS 231032Z 24008KT 14/12 A2995 RMK A01 T01380120  RH  089%=      5-min Rain = 0
KAHS 231033Z 24008KT 14/12 A2995 RMK A01 T01380120  RH  089%=      5-min Rain = 0
KAHS 231034Z 25008KT 14/12 A2995 RMK A01 T01380120  RH  089%=      5-min Rain = 0
KAHS 231035Z 25008KT 14/12 A2995 RMK A01 T01380120  RH  089%=      5-min Rain = 0
KAHS 231036Z 26007KT 14/12 A2995 RMK A01 T01380120  RH  089%=      5-min Rain = 0
KAHS 231037Z 27007KT 14/12 A2995 RMK A01 T01370119  RH  089%=      5-min Rain = 0
KAHS 231038Z 27008KT 14/12 A2996 RMK A01 T01370119  RH  089%=      5-min Rain = 0
KAHS 231039Z 28007KT 14/12 A2996 RMK A01 T01370119  RH  089%=      5-min Rain = 0
KAHS 231040Z 29006KT 14/12 A2996 RMK A01 T01360119  RH  089%=      5-min Rain = 0
KAHS 231041Z 29008KT 13/12 A2996 RMK A01 T01340117  RH  089%=      5-min Rain = 0
KAHS 231042Z 28007KT 13/12 A2996 RMK A01 T01330117  RH  090%=      5-min Rain = 0
KAHS 231043Z 28007KT 13/12 A2996 RMK A01 T01320116  RH  090%=      5-min Rain = 0
KAHS 231044Z 28007KT 13/12 A2996 RMK A01 T01320117  RH  090%=      5-min Rain = 0
KAHS 231045Z 28009KT 13/12 A2996 RMK A01 T01320117  RH  091%=      5-min Rain = 0
KAHS 231046Z 28008KT 13/12 A2996 RMK A01 T01310117  RH  091%=      5-min Rain = 0
KAHS 231047Z 27007KT 13/12 A2996 RMK A01 T01310117  RH  091%=      5-min Rain = 0
KAHS 231048Z 27008KT 13/12 A2996 RMK A01 T01320118  RH  091%=      5-min Rain = 0
KAHS 231049Z 27007KT 13/12 A2996 RMK A01 T01330119  RH  091%=      5-min Rain = 0
KAHS 231050Z 27007KT 13/12 A2996 RMK A01 T01330119  RH  091%=      5-min Rain = 0
KAHS 231051Z 27007KT 13/12 A2996 RMK A01 T01330119  RH  091%=      5-min Rain = 0
KAHS 231052Z 27007KT 13/12 A2996 RMK A01 T01340120  RH  091%=      5-min Rain = 0
KAHS 231053Z 27007KT 13/12 A2996 RMK A01 T01340119  RH  091%=      5-min Rain = 0
KAHS 231054Z 28005KT 13/12 A2996 RMK A01 T01340120  RH  091%=      5-min Rain = 0
KAHS 231055Z 28006KT 13/12 A2996 RMK A01 T01340120  RH  091%=      5-min Rain = 0
KAHS 231056Z 28007KT 13/12 A2996 RMK A01 T01340120  RH  091%=      5-min Rain = 0
KAHS 231057Z 28006KT 13/12 A2996 RMK A01 T01340120  RH  091%=      5-min Rain = 0
KAHS 231058Z 28007KT 13/12 A2996 RMK A01 T01340120  RH  091%=      5-min Rain = 0
KAHS 231059Z 28006KT 13/12 A2996 RMK A01 T01340120  RH  091%=      5-min Rain = 0
KAHS 231100Z 28007KT 13/12 A2996 RMK A01 T01330119  RH  091%=      5-min Rain = 0
KAHS 231101Z 28006KT 13/12 A2996 RMK A01 T01330119  RH  091%=      5-min Rain = 0
KAHS 231102Z 28006KT 13/12 A2996 RMK A01 T01330119  RH  091%=      5-min Rain = 0
KAHS 231103Z 28006KT 13/12 A2997 RMK A01 T01330119  RH  091%=      5-min Rain = 0
KAHS 231104Z 28006KT 13/12 A2997 RMK A01 T01330118  RH  091%=      5-min Rain = 0
KAHS 231105Z 28007KT 13/12 A2997 RMK A01 T01330119  RH  091%=      5-min Rain = 0
KAHS 231106Z 28006KT 13/12 A2997 RMK A01 T01330119  RH  091%=      5-min Rain = 0
KAHS 231107Z 28007KT 13/12 A2997 RMK A01 T01330119  RH  091%=      5-min Rain = 0
KAHS 231108Z 28007KT 13/12 A2997 RMK A01 T01330119  RH  091%=      5-min Rain = 0
KAHS 231109Z 27007KT 13/12 A2997 RMK A01 T01330119  RH  091%=      5-min Rain = 0
KAHS 231110Z 27007KT 13/12 A2997 RMK A01 T01330119  RH  091%=      5-min Rain = 0
KAHS 231111Z 27007KT 13/12 A2997 RMK A01 T01330119  RH  091%=      5-min Rain = 0
KAHS 231112Z 28007KT 13/12 A2997 RMK A01 T01340120  RH  091%=      5-min Rain = 0
KAHS 231113Z 27006KT 13/12 A2997 RMK A01 T01340120  RH  091%=      5-min Rain = 0
KAHS 231114Z 28005KT 13/12 A2997 RMK A01 T01340120  RH  091%=      5-min Rain = 0
KAHS 231115Z 27005KT 13/12 A2997 RMK A01 T01340119  RH  091%=      5-min Rain = 0
KAHS 231116Z 27005KT 13/12 A2997 RMK A01 T01340119  RH  091%=      5-min Rain = 0
KAHS 231117Z 26006KT 13/12 A2997 RMK A01 T01330119  RH  091%=      5-min Rain = 0
KAHS 231118Z 25006KT 13/12 A2997 RMK A01 T01330119  RH  091%=      5-min Rain = 0
KAHS 231119Z 25006KT 13/12 A2997 RMK A01 T01340119  RH  091%=      5-min Rain = 0
KAHS 231120Z 24006KT 13/12 A2997 RMK A01 T01340119  RH  091%=      5-min Rain = 0
KAHS 231121Z 23006KT 13/12 A2997 RMK A01 T01340119  RH  091%=      5-min Rain = 0
KAHS 231122Z 23006KT 13/12 A2996 RMK A01 T01340120  RH  091%=      5-min Rain = 0
KAHS 231123Z 23007KT 14/12 A2996 RMK A01 T01350120  RH  091%=      5-min Rain = 0
KAHS 231124Z 23008KT 14/12 A2996 RMK A01 T01360121  RH  091%=      5-min Rain = 0
KAHS 231125Z 23007KT 14/12 A2996 RMK A01 T01360121  RH  090%=      5-min Rain = 0
KAHS 231126Z 23007KT 14/12 A2996 RMK A01 T01370120  RH  090%=      5-min Rain = 0
KAHS 231127Z 23006KT 14/12 A2997 RMK A01 T01370120  RH  090%=      5-min Rain = 0
KAHS 231128Z 24007KT 14/12 A2997 RMK A01 T01360120  RH  090%=      5-min Rain = 0
KAHS 231129Z 24007KT 14/12 A2997 RMK A01 T01360120  RH  090%=      5-min Rain = 0
KAHS 231130Z 24007KT 14/12 A2997 RMK A01 T01370120  RH  090%=      5-min Rain = 0
KAHS 231131Z 24007KT 14/12 A2997 RMK A01 T01370120  RH  090%=      5-min Rain = 0
KAHS 231132Z 25007KT 14/12 A2997 RMK A01 T01370120  RH  090%=      5-min Rain = 0
KAHS 231133Z 25006KT 14/12 A2997 RMK A01 T01370120  RH  090%=      5-min Rain = 0
KAHS 231134Z 26006KT 14/12 A2997 RMK A01 T01360120  RH  090%=      5-min Rain = 0
KAHS 231135Z 26006KT 14/12 A2997 RMK A01 T01370121  RH  090%=      5-min Rain = 0
KAHS 231136Z 26007KT 14/12 A2997 RMK A01 T01370121  RH  090%=      5-min Rain = 0
KAHS 231137Z 26006KT 14/12 A2997 RMK A01 T01370121  RH  090%=      5-min Rain = 0
KAHS 231138Z 26007KT 14/12 A2997 RMK A01 T01370121  RH  090%=      5-min Rain = 0
KAHS 231139Z 26007KT 14/12 A2997 RMK A01 T01370121  RH  090%=      5-min Rain = 0
KAHS 231140Z 27006KT 14/12 A2997 RMK A01 T01360120  RH  090%=      5-min Rain = 0
KAHS 231141Z 26007KT 14/12 A2997 RMK A01 T01370120  RH  090%=      5-min Rain = 0
KAHS 231142Z 26007KT 14/12 A2997 RMK A01 T01360120  RH  090%=      5-min Rain = 0
KAHS 231143Z 26008KT 14/12 A2997 RMK A01 T01360120  RH  090%=      5-min Rain = 0
KAHS 231144Z 25007KT 14/12 A2997 RMK A01 T01360120  RH  090%=      5-min Rain = 0
KAHS 231145Z 25007KT 14/12 A2997 RMK A01 T01360120  RH  090%=      5-min Rain = 0
KAHS 231146Z 25007KT 14/12 A2997 RMK A01 T01360120  RH  090%=      5-min Rain = 0
KAHS 231147Z 24007KT 14/12 A2997 RMK A01 T01360120  RH  090%=      5-min Rain = 0
KAHS 231148Z 24006KT 14/12 A2997 RMK A01 T01360120  RH  090%=      5-min Rain = 0
KAHS 231149Z 24007KT 14/12 A2997 RMK A01 T01350119  RH  090%=      5-min Rain = 0
KAHS 231150Z 25007KT 14/12 A2997 RMK A01 T01350119  RH  090%=      5-min Rain = 0
KAHS 231151Z 25007KT 14/12 A2997 RMK A01 T01350120  RH  090%=      5-min Rain = 0
KAHS 231152Z 25006KT 14/12 A2997 RMK A01 T01350120  RH  090%=      5-min Rain = 0
KAHS 231153Z 25007KT 14/12 A2997 RMK A01 T01350120  RH  090%=      5-min Rain = 0
KAHS 231154Z 25007KT 14/12 A2997 RMK A01 T01350120  RH  090%=      5-min Rain = 0
KAHS 231155Z 25006KT 14/12 A2997 RMK A01 T01350120  RH  090%=      5-min Rain = 0
KAHS 231156Z 25007KT 14/12 A2997 RMK A01 T01350120  RH  090%=      5-min Rain = 0
KAHS 231157Z 25006KT 14/12 A2997 RMK A01 T01360120  RH  090%=      5-min Rain = 0
KAHS 231158Z 24006KT 14/12 A2997 RMK A01 T01360120  RH  090%=      5-min Rain = 0
KAHS 231159Z 25007KT 14/12 A2997 RMK A01 T01360120  RH  090%=      5-min Rain = 0
KAHS 231200Z 25006KT 14/12 A2997 RMK A01 T01360120  RH  090%=      5-min Rain = 0
KAHS 231201Z 25007KT 14/12 A2997 RMK A01 T01360119  RH  090%=      5-min Rain = 0
KAHS 231202Z 25006KT 14/12 A2997 RMK A01 T01350119  RH  090%=      5-min Rain = 0
KAHS 231203Z 25006KT 14/12 A2998 RMK A01 T01350118  RH  090%=      5-min Rain = 0
KAHS 231204Z 25007KT 13/12 A2998 RMK A01 T01340118  RH  090%=      5-min Rain = 0
KAHS 231205Z 25006KT 13/12 A2998 RMK A01 T01340118  RH  090%=      5-min Rain = 0
KAHS 231206Z 25007KT 13/12 A2998 RMK A01 T01330118  RH  090%=      5-min Rain = 0
KAHS 231207Z 25007KT 13/12 A2998 RMK A01 T01340118  RH  090%=      5-min Rain = 0
KAHS 231208Z 25005KT 13/12 A2998 RMK A01 T01330117  RH  090%=      5-min Rain = 0
KAHS 231209Z 25005KT 13/12 A2998 RMK A01 T01320116  RH  090%=      5-min Rain = 0
KAHS 231210Z 25006KT 13/12 A2998 RMK A01 T01320116  RH  090%=      5-min Rain = 0
KAHS 231211Z 25006KT 13/12 A2998 RMK A01 T01310116  RH  090%=      5-min Rain = 0
KAHS 231212Z 25005KT 13/12 A2998 RMK A01 T01310115  RH  090%=      5-min Rain = 0
KAHS 231213Z 24005KT 13/12 A2998 RMK A01 T01300115  RH  091%=      5-min Rain = 0
KAHS 231214Z 24006KT 13/12 A2998 RMK A01 T01290115  RH  091%=      5-min Rain = 0
KAHS 231215Z 24006KT 13/12 A2998 RMK A01 T01290115  RH  091%=      5-min Rain = 0
KAHS 231216Z 23006KT 13/12 A2998 RMK A01 T01290115  RH  091%=      5-min Rain = 0
KAHS 231217Z 23006KT 13/11 A2998 RMK A01 T01280114  RH  091%=      5-min Rain = 0
KAHS 231218Z 23006KT 13/11 A2998 RMK A01 T01280114  RH  091%=      5-min Rain = 0
KAHS 231219Z 23006KT 13/11 A2998 RMK A01 T01280114  RH  091%=      5-min Rain = 0
KAHS 231220Z 23006KT 13/11 A2998 RMK A01 T01270114  RH  092%=      5-min Rain = 0
KAHS 231221Z 22007KT 13/11 A2998 RMK A01 T01270114  RH  092%=      5-min Rain = 0
KAHS 231222Z 22007KT 13/11 A2998 RMK A01 T01270114  RH  092%=      5-min Rain = 0
KAHS 231223Z 22006KT 13/11 A2998 RMK A01 T01270114  RH  092%=      5-min Rain = 0
KAHS 231224Z 22007KT 13/11 A2998 RMK A01 T01260113  RH  092%=      5-min Rain = 0
KAHS 231225Z 22007KT 13/11 A2998 RMK A01 T01260113  RH  092%=      5-min Rain = 0
KAHS 231226Z 22006KT 13/11 A2998 RMK A01 T01250113  RH  092%=      5-min Rain = 0
KAHS 231227Z 22006KT 13/11 A2998 RMK A01 T01250112  RH  092%=      5-min Rain = 0
KAHS 231228Z 22007KT 12/11 A2998 RMK A01 T01240112  RH  092%=      5-min Rain = 0
KAHS 231229Z 22007KT 12/11 A2998 RMK A01 T01240112  RH  092%=      5-min Rain = 0
KAHS 231230Z 22007KT 12/11 A2998 RMK A01 T01230112  RH  093%=      5-min Rain = 0
KAHS 231231Z 22007KT 12/11 A2998 RMK A01 T01230112  RH  093%=      5-min Rain = 0
KAHS 231232Z 23008KT 12/11 A2998 RMK A01 T01230112  RH  093%=      5-min Rain = 0
KAHS 231233Z 23007KT 12/11 A2998 RMK A01 T01230112  RH  093%=      5-min Rain = 0
KAHS 231234Z 23007KT 12/11 A2998 RMK A01 T01240113  RH  093%=      5-min Rain = 0
KAHS 231235Z 23007KT 12/11 A2998 RMK A01 T01240113  RH  093%=      5-min Rain = 0
KAHS 231236Z 23008KT 12/11 A2998 RMK A01 T01230112  RH  093%=      5-min Rain = 0
KAHS 231237Z 23007KT 12/11 A2998 RMK A01 T01230112  RH  093%=      5-min Rain = 0
KAHS 231238Z 24008KT 12/11 A2998 RMK A01 T01230111  RH  093%=      5-min Rain = 0
KAHS 231239Z 24007KT 12/11 A2998 RMK A01 T01220111  RH  093%=      5-min Rain = 0
KAHS 231240Z 24008KT 12/11 A2998 RMK A01 T01230112  RH  093%=      5-min Rain = 0
KAHS 231241Z 24007KT 12/11 A2998 RMK A01 T01220111  RH  093%=      5-min Rain = 0
KAHS 231242Z 24007KT 12/11 A2998 RMK A01 T01220111  RH  093%=      5-min Rain = 0
KAHS 231243Z 24007KT 12/11 A2998 RMK A01 T01220111  RH  093%=      5-min Rain = 0
KAHS 231244Z 24007KT 12/11 A2998 RMK A01 T01210110  RH  093%=      5-min Rain = 0
KAHS 231245Z 24007KT 12/11 A2998 RMK A01 T01200110  RH  093%=      5-min Rain = 0
KAHS 231246Z 24007KT 12/11 A2998 RMK A01 T01200110  RH  093%=      5-min Rain = 0
KAHS 231247Z 24007KT 12/11 A2998 RMK A01 T01200110  RH  093%=      5-min Rain = 0
KAHS 231248Z 24007KT 12/11 A2998 RMK A01 T01190109  RH  093%=      5-min Rain = 0
KAHS 231249Z 23007KT 12/11 A2998 RMK A01 T01190109  RH  094%=      5-min Rain = 0
KAHS 231250Z 24007KT 12/11 A2998 RMK A01 T01180108  RH  094%=      5-min Rain = 0
KAHS 231251Z 24007KT 12/11 A2998 RMK A01 T01180108  RH  094%=      5-min Rain = 0
KAHS 231252Z 24007KT 12/11 A2998 RMK A01 T01170107  RH  094%=      5-min Rain = 0
KAHS 231253Z 24007KT 12/11 A2998 RMK A01 T01170107  RH  094%=      5-min Rain = 0
KAHS 231254Z 24007KT 12/11 A2998 RMK A01 T01160107  RH  094%=      5-min Rain = 0
KAHS 231255Z 24006KT 12/11 A2998 RMK A01 T01160107  RH  094%=      5-min Rain = 0
KAHS 231256Z 24006KT 12/11 A2998 RMK A01 T01160107  RH  094%=      5-min Rain = 0
KAHS 231257Z 24006KT 12/11 A2998 RMK A01 T01150106  RH  094%=      5-min Rain = 0
KAHS 231258Z 23007KT 11/11 A2998 RMK A01 T01140106  RH  094%=      5-min Rain = 0
KAHS 231259Z 23007KT 11/11 A2999 RMK A01 T01140106  RH  095%=      5-min Rain = 0
KAHS 231300Z 23007KT 11/11 A2999 RMK A01 T01140106  RH  095%=      5-min Rain = 0
KAHS 231301Z 24006KT 11/11 A2999 RMK A01 T01140106  RH  095%=      5-min Rain = 0
KAHS 231302Z 23006KT 11/11 A2999 RMK A01 T01140106  RH  095%=      5-min Rain = 0
KAHS 231303Z 23006KT 11/11 A2999 RMK A01 T01140106  RH  095%=      5-min Rain = 0
KAHS 231304Z 23006KT 11/11 A2999 RMK A01 T01140106  RH  095%=      5-min Rain = 0
KAHS 231305Z 23007KT 11/11 A2999 RMK A01 T01140106  RH  095%=      5-min Rain = 0
KAHS 231306Z 23006KT 12/11 A2999 RMK A01 T01150107  RH  095%=      5-min Rain = 0
KAHS 231307Z 23006KT 12/11 A2999 RMK A01 T01150107  RH  095%=      5-min Rain = 0
KAHS 231308Z 23007KT 12/11 A2999 RMK A01 T01150108  RH  095%=      5-min Rain = 0
KAHS 231309Z 23007KT 12/11 A2999 RMK A01 T01160108  RH  095%=      5-min Rain = 0
KAHS 231310Z 23006KT 12/11 A2999 RMK A01 T01160109  RH  095%=      5-min Rain = 0
KAHS 231311Z 23006KT 12/11 A2999 RMK A01 T01170109  RH  095%=      5-min Rain = 0
KAHS 231312Z 23006KT 12/11 A2999 RMK A01 T01170110  RH  095%=      5-min Rain = 0
KAHS 231313Z 23007KT 12/11 A2999 RMK A01 T01180110  RH  095%=      5-min Rain = 0
KAHS 231314Z 23006KT 12/11 A2999 RMK A01 T01180110  RH  095%=      5-min Rain = 0
KAHS 231315Z 23006KT 12/11 A2999 RMK A01 T01190110  RH  095%=      5-min Rain = 0
KAHS 231316Z 24006KT 12/11 A2999 RMK A01 T01190110  RH  094%=      5-min Rain = 0
KAHS 231317Z 24006KT 12/11 A2999 RMK A01 T01200111  RH  094%=      5-min Rain = 0
KAHS 231318Z 24006KT 12/11 A2999 RMK A01 T01200111  RH  094%=      5-min Rain = 0
KAHS 231319Z 24006KT 12/11 A2999 RMK A01 T01210111  RH  094%=      5-min Rain = 0
KAHS 231320Z 24006KT 12/11 A2999 RMK A01 T01210111  RH  094%=      5-min Rain = 0
KAHS 231321Z 24006KT 12/11 A30 RMK A01 T01210111  RH  093%=      5-min Rain = 0
KAHS 231322Z 24006KT 12/11 A30 RMK A01 T01220111  RH  093%=      5-min Rain = 0
KAHS 231323Z 24006KT 12/11 A30 RMK A01 T01220111  RH  093%=      5-min Rain = 0
KAHS 231324Z 24005KT 12/11 A30 RMK A01 T01230112  RH  093%=      5-min Rain = 0
KAHS 231325Z 24006KT 12/11 A30 RMK A01 T01230112  RH  093%=      5-min Rain = 0
KAHS 231326Z 25006KT 12/11 A30 RMK A01 T01240113  RH  093%=      5-min Rain = 0
KAHS 231327Z 25006KT 13/11 A30 RMK A01 T01260114  RH  093%=      5-min Rain = 0
KAHS 231328Z 25006KT 13/12 A30 RMK A01 T01270115  RH  092%=      5-min Rain = 0
KAHS 231329Z 25006KT 13/12 A30 RMK A01 T01280115  RH  092%=      5-min Rain = 0
KAHS 231330Z 25006KT 13/12 A30 RMK A01 T01280115  RH  092%=      5-min Rain = 0
KAHS 231331Z 25007KT 13/12 A30 RMK A01 T01290116  RH  091%=      5-min Rain = 0
KAHS 231332Z 25006KT 13/12 A30 RMK A01 T01300116  RH  091%=      5-min Rain = 0
KAHS 231333Z 25007KT 13/12 A30 RMK A01 T01300116  RH  091%=      5-min Rain = 0
KAHS 231334Z 24007KT 13/12 A30 RMK A01 T01310116  RH  091%=      5-min Rain = 0
KAHS 231335Z 24008KT 13/12 A30 RMK A01 T01320116  RH  090%=      5-min Rain = 0
KAHS 231336Z 25006KT 13/12 A30 RMK A01 T01320116  RH  090%=      5-min Rain = 0
KAHS 231337Z 25008KT 13/12 A30 RMK A01 T01330116  RH  090%=      5-min Rain = 0
KAHS 231338Z 25007KT 13/12 A30 RMK A01 T01330116  RH  089%=      5-min Rain = 0
KAHS 231339Z 24007KT 13/12 A30 RMK A01 T01330116  RH  089%=      5-min Rain = 0
KAHS 231340Z 24007KT 13/12 A30 RMK A01 T01340116  RH  089%=      5-min Rain = 0
KAHS 231341Z 25007KT 13/12 A30 RMK A01 T01340116  RH  089%=      5-min Rain = 0
KAHS 231342Z 24007KT 13/12 A30 RMK A01 T01340116  RH  089%=      5-min Rain = 0
KAHS 231343Z 24008KT 14/12 A30 RMK A01 T01350116  RH  088%=      5-min Rain = 0
KAHS 231344Z 24008KT 14/12 A30 RMK A01 T01350115  RH  088%=      5-min Rain = 0
KAHS 231345Z 24009KT 14/12 A30 RMK A01 T01350116  RH  088%=      5-min Rain = 0
KAHS 231346Z 24010KT 14/12 A30 RMK A01 T01350115  RH  088%=      5-min Rain = 0
KAHS 231347Z 24008KT 14/12 A30 RMK A01 T01350115  RH  088%=      5-min Rain = 0
KAHS 231348Z 25007KT 14/12 A30 RMK A01 T01360116  RH  088%=      5-min Rain = 0
KAHS 231349Z 24007KT 14/12 A30 RMK A01 T01360116  RH  088%=      5-min Rain = 0
KAHS 231350Z 24007KT 14/12 A30 RMK A01 T01360116  RH  087%=      5-min Rain = 0
KAHS 231351Z 24006KT 14/12 A30 RMK A01 T01370116  RH  087%=      5-min Rain = 0
KAHS 231352Z 24008KT 14/12 A30 RMK A01 T01370116  RH  087%=      5-min Rain = 0
KAHS 231353Z 25007KT 14/12 A30 RMK A01 T01370116  RH  087%=      5-min Rain = 0
KAHS 231354Z 24007KT 14/12 A30 RMK A01 T01370116  RH  087%=      5-min Rain = 0
KAHS 231355Z 25006KT 14/12 A3001 RMK A01 T01380116  RH  087%=      5-min Rain = 0
KAHS 231356Z 25009KT 14/12 A3001 RMK A01 T01380116  RH  087%=      5-min Rain = 0
KAHS 231357Z 26007KT 14/12 A3001 RMK A01 T01380116  RH  087%=      5-min Rain = 0
KAHS 231358Z 25007KT 14/12 A3001 RMK A01 T01380116  RH  086%=      5-min Rain = 0
KAHS 231359Z 26008KT 14/12 A3001 RMK A01 T01380116  RH  086%=      5-min Rain = 0
KAHS 231400Z 25007KT 14/12 A3001 RMK A01 T01390116  RH  086%=      5-min Rain = 0
KAHS 231401Z 26007KT 14/12 A3001 RMK A01 T01380116  RH  086%=      5-min Rain = 0
KAHS 231402Z 26006KT 14/12 A3001 RMK A01 T01390116  RH  086%=      5-min Rain = 0
KAHS 231403Z 25007G12KT 14/12 A3001 RMK A01 T01390117  RH  086%=      5-min Rain = 0
KAHS 231404Z 25010KT 14/12 A3001 RMK A01 T01390115  RH  086%=      5-min Rain = 0
KAHS 231405Z 25008KT 14/12 A3001 RMK A01 T01390115  RH  085%=      5-min Rain = 0
KAHS 231406Z 25007KT 14/12 A3001 RMK A01 T01400116  RH  085%=      5-min Rain = 0
KAHS 231407Z 25010KT 14/12 A3001 RMK A01 T01400115  RH  085%=      5-min Rain = 0
KAHS 231408Z 25010KT 14/11 A3001 RMK A01 T01390114  RH  085%=      5-min Rain = 0
KAHS 231409Z 25008KT 14/11 A3001 RMK A01 T01390114  RH  085%=      5-min Rain = 0
KAHS 231410Z 25009KT 14/12 A3001 RMK A01 T01400115  RH  085%=      5-min Rain = 0
KAHS 231411Z 24009KT 14/12 A3001 RMK A01 T01410115  RH  085%=      5-min Rain = 0
KAHS 231412Z 25011KT 14/12 A3001 RMK A01 T01410115  RH  084%=      5-min Rain = 0
KAHS 231413Z 24011KT 14/11 A3001 RMK A01 T01410114  RH  084%=      5-min Rain = 0
KAHS 231414Z 24008KT 14/11 A3001 RMK A01 T01400114  RH  084%=      5-min Rain = 0
KAHS 231415Z 25007KT 14/12 A3001 RMK A01 T01410116  RH  085%=      5-min Rain = 0
KAHS 231416Z 25007KT 14/12 A3001 RMK A01 T01420116  RH  084%=      5-min Rain = 0
KAHS 231417Z 25007KT 14/12 A3001 RMK A01 T01430117  RH  084%=      5-min Rain = 0
KAHS 231418Z 24011KT 14/12 A3001 RMK A01 T01430115  RH  083%=      5-min Rain = 0
KAHS 231419Z 25010KT 14/11 A3001 RMK A01 T01420114  RH  083%=      5-min Rain = 0
KAHS 231420Z 24009KT 14/11 A3001 RMK A01 T01420114  RH  083%=      5-min Rain = 0
KAHS 231421Z 24011KT 14/11 A3001 RMK A01 T01430114  RH  083%=      5-min Rain = 0
KAHS 231422Z 24009KT 14/11 A3001 RMK A01 T01430113  RH  082%=      5-min Rain = 0
KAHS 231423Z 24009KT 14/11 A3002 RMK A01 T01430113  RH  082%=      5-min Rain = 0
KAHS 231424Z 25008KT 14/11 A3002 RMK A01 T01440112  RH  081%=      5-min Rain = 0
KAHS 231425Z 26010KT 14/11 A3002 RMK A01 T01440112  RH  081%=      5-min Rain = 0
KAHS 231426Z 26009KT 14/11 A3002 RMK A01 T01440111  RH  080%=      5-min Rain = 0
KAHS 231427Z 26009KT 15/11 A3002 RMK A01 T01450112  RH  080%=      5-min Rain = 0
KAHS 231428Z 25009KT 15/11 A3002 RMK A01 T01450110  RH  080%=      5-min Rain = 0
KAHS 231429Z 24009KT 15/11 A3002 RMK A01 T01460109  RH  078%=      5-min Rain = 0
KAHS 231430Z 25009KT 15/11 A3002 RMK A01 T01470109  RH  078%=      5-min Rain = 0
KAHS 231431Z 24009KT 15/11 A3002 RMK A01 T01470108  RH  077%=      5-min Rain = 0
KAHS 231432Z 24008KT 15/11 A3002 RMK A01 T01480105  RH  076%=      5-min Rain = 0
KAHS 231433Z 25009KT 15/11 A3002 RMK A01 T01490105  RH  075%=      5-min Rain = 0
KAHS 231434Z 26008KT 15/11 A3002 RMK A01 T01500106  RH  075%=      5-min Rain = 0
KAHS 231435Z 26009KT 15/10 A3002 RMK A01 T01500104  RH  074%=      5-min Rain = 0
KAHS 231436Z 27007KT 15/11 A3002 RMK A01 T01500105  RH  075%=      5-min Rain = 0
KAHS 231437Z 26008KT 15/11 A3002 RMK A01 T01500105  RH  074%=      5-min Rain = 0
KAHS 231438Z 26008KT 15/11 A3002 RMK A01 T01500105  RH  074%=      5-min Rain = 0
KAHS 231439Z 26009KT 15/10 A3002 RMK A01 T01510104  RH  073%=      5-min Rain = 0
KAHS 231440Z 26009KT 15/10 A3002 RMK A01 T01500102  RH  073%=      5-min Rain = 0
KAHS 231441Z 26009KT 15/10 A3002 RMK A01 T01500100  RH  072%=      5-min Rain = 0
KAHS 231442Z 26008KT 15/10 A3002 RMK A01 T01500101  RH  072%=      5-min Rain = 0
KAHS 231443Z 25010KT 15/10 A3002 RMK A01 T01500097  RH  071%=      5-min Rain = 0
KAHS 231444Z 28010KT 15/09 A3002 RMK A01 T01500091  RH  067%=      5-min Rain = 0
KAHS 231445Z 27009KT 15/09 A3002 RMK A01 T01510093  RH  068%=      5-min Rain = 0
KAHS 231446Z 26009KT 15/10 A3002 RMK A01 T01510098  RH  071%=      5-min Rain = 0
KAHS 231447Z 25008KT 15/10 A3002 RMK A01 T01520099  RH  071%=      5-min Rain = 0
KAHS 231448Z 26007KT 15/10 A3002 RMK A01 T01530097  RH  069%=      5-min Rain = 0
KAHS 231449Z 28009KT 15/10 A3002 RMK A01 T01540095  RH  068%=      5-min Rain = 0
KAHS 231450Z 28009KT 15/09 A3002 RMK A01 T01540089  RH  065%=      5-min Rain = 0
KAHS 231451Z 27008KT 15/09 A3002 RMK A01 T01540089  RH  065%=      5-min Rain = 0
KAHS 231452Z 26009KT 16/09 A3002 RMK A01 T01550089  RH  065%=      5-min Rain = 0
KAHS 231453Z 26008KT 15/09 A3002 RMK A01 T01540090  RH  065%=      5-min Rain = 0
KAHS 231454Z 25008KT 15/09 A3002 RMK A01 T01540090  RH  065%=      5-min Rain = 0
KAHS 231455Z 27010KT 15/09 A3002 RMK A01 T01540087  RH  064%=      5-min Rain = 0
KAHS 231456Z 27009KT 15/09 A3002 RMK A01 T01540086  RH  064%=      5-min Rain = 0
KAHS 231457Z 26007KT 15/09 A3002 RMK A01 T01540088  RH  065%=      5-min Rain = 0
KAHS 231458Z 26008KT 16/09 A3002 RMK A01 T01550088  RH  064%=      5-min Rain = 0
KAHS 231459Z 26009KT 16/09 A3002 RMK A01 T01560085  RH  063%=      5-min Rain = 0
KAHS 231500Z 26009KT 16/09 A3002 RMK A01 T01560085  RH  063%=      5-min Rain = 0
KAHS 231501Z 26009KT 16/08 A3002 RMK A01 T01560084  RH  062%=      5-min Rain = 0
KAHS 231502Z 27008KT 16/08 A3003 RMK A01 T01570084  RH  062%=      5-min Rain = 0
KAHS 231503Z 27008KT 16/09 A3003 RMK A01 T01570085  RH  062%=      5-min Rain = 0
KAHS 231504Z 25007KT 16/09 A3003 RMK A01 T01580088  RH  063%=      5-min Rain = 0
KAHS 231505Z 25009KT 16/09 A3003 RMK A01 T01590086  RH  062%=      5-min Rain = 0
KAHS 231506Z 25008KT 16/09 A3003 RMK A01 T01590087  RH  062%=      5-min Rain = 0
KAHS 231507Z 26007KT 16/09 A3003 RMK A01 T01600087  RH  062%=      5-min Rain = 0
KAHS 231508Z 27006KT 16/09 A3003 RMK A01 T01620088  RH  061%=      5-min Rain = 0
KAHS 231509Z 27008KT 16/09 A3003 RMK A01 T01630085  RH  060%=      5-min Rain = 0
KAHS 231510Z 27008KT 16/08 A3003 RMK A01 T01630079  RH  058%=      5-min Rain = 0
KAHS 231511Z 27008KT 16/08 A3003 RMK A01 T01620079  RH  058%=      5-min Rain = 0
KAHS 231512Z 27009KT 16/08 A3003 RMK A01 T01620080  RH  058%=      5-min Rain = 0
KAHS 231513Z 27009KT 16/08 A3003 RMK A01 T01620075  RH  056%=      5-min Rain = 0
KAHS 231514Z 27009KT 16/08 A3003 RMK A01 T01610078  RH  058%=      5-min Rain = 0
KAHS 231515Z 27008KT 16/08 A3003 RMK A01 T01620079  RH  058%=      5-min Rain = 0
KAHS 231516Z 28008KT 16/08 A3003 RMK A01 T01620080  RH  058%=      5-min Rain = 0
KAHS 231517Z 29007KT 16/08 A3002 RMK A01 T01640079  RH  057%=      5-min Rain = 0
KAHS 231518Z 28006KT 17/08 A3002 RMK A01 T01650080  RH  057%=      5-min Rain = 0
KAHS 231519Z 28006KT 17/08 A3002 RMK A01 T01650079  RH  057%=      5-min Rain = 0
KAHS 231520Z 27007KT 17/08 A3002 RMK A01 T01650079  RH  056%=      5-min Rain = 0
KAHS 231521Z 26008KT 17/08 A3002 RMK A01 T01660076  RH  055%=      5-min Rain = 0
KAHS 231522Z 27009KT 17/08 A3002 RMK A01 T01670076  RH  055%=      5-min Rain = 0
KAHS 231523Z 28009KT 17/08 A3002 RMK A01 T01680075  RH  054%=      5-min Rain = 0
KAHS 231524Z 28008KT 17/08 A3002 RMK A01 T01680075  RH  054%=      5-min Rain = 0
KAHS 231525Z 28007KT 17/07 A3002 RMK A01 T01690074  RH  053%=      5-min Rain = 0
KAHS 231526Z 28007KT 17/07 A3002 RMK A01 T01690073  RH  053%=      5-min Rain = 0
KAHS 231527Z 27010KT 17/07 A3002 RMK A01 T01700071  RH  052%=      5-min Rain = 0
KAHS 231528Z 27009KT 17/07 A3002 RMK A01 T01690067  RH  051%=      5-min Rain = 0
KAHS 231529Z 29008KT 17/07 A3002 RMK A01 T01690067  RH  051%=      5-min Rain = 0
KAHS 231530Z 28008KT 17/07 A3002 RMK A01 T01710070  RH  051%=      5-min Rain = 0
KAHS 231531Z 28006KT 17/07 A3002 RMK A01 T01720065  RH  049%=      5-min Rain = 0
KAHS 231532Z 28007KT 17/06 A3002 RMK A01 T01740064  RH  049%=      5-min Rain = 0
KAHS 231533Z 28006KT 17/06 A3002 RMK A01 T01740062  RH  048%=      5-min Rain = 0
KAHS 231534Z 29007KT 17/06 A3002 RMK A01 T01730061  RH  048%=      5-min Rain = 0
KAHS 231535Z 29005KT 18/07 A3002 RMK A01 T01750067  RH  049%=      5-min Rain = 0
KAHS 231536Z 28007KT 18/06 A3002 RMK A01 T01760064  RH  048%=      5-min Rain = 0
KAHS 231537Z 27007KT 18/06 A3002 RMK A01 T01760058  RH  046%=      5-min Rain = 0
KAHS 231538Z 27006KT 18/06 A3002 RMK A01 T01760057  RH  045%=      5-min Rain = 0
KAHS 231539Z 29008KT 18/06 A3002 RMK A01 T01780060  RH  046%=      5-min Rain = 0
KAHS 231540Z 28007KT 18/06 A3002 RMK A01 T01780056  RH  045%=      5-min Rain = 0
KAHS 231541Z 29006KT 18/05 A3002 RMK A01 T01780048  RH  042%=      5-min Rain = 0
KAHS 231542Z 30007KT 18/04 A3002 RMK A01 T01790042  RH  040%=      5-min Rain = 0
KAHS 231543Z 30007KT 18/05 A3002 RMK A01 T01820046  RH  040%=      5-min Rain = 0
KAHS 231544Z 29005KT 19/05 A3002 RMK A01 T01850045  RH  039%=      5-min Rain = 0
KAHS 231545Z 31007KT 19/05 A3002 RMK A01 T01880046  RH  039%=      5-min Rain = 0
KAHS 231546Z 30008KT 19/03 A3002 RMK A01 T01860033  RH  036%=      5-min Rain = 0
KAHS 231547Z 29006KT 19/03 A3002 RMK A01 T01860029  RH  035%=      5-min Rain = 0
KAHS 231548Z 30008KT 19/03 A3002 RMK A01 T01870033  RH  036%=      5-min Rain = 0
KAHS 231549Z 30007KT 19/02 A3002 RMK A01 T01870023  RH  033%=      5-min Rain = 0
KAHS 231550Z 31007KT 19/03 A3002 RMK A01 T01880027  RH  034%=      5-min Rain = 0
KAHS 231551Z 30006KT 19/03 A3002 RMK A01 T01880026  RH  034%=      5-min Rain = 0
KAHS 231552Z 32006KT 19/02 A3002 RMK A01 T01880024  RH  033%=      5-min Rain = 0
KAHS 231553Z 30006KT 19/03 A3002 RMK A01 T01900034  RH  035%=      5-min Rain = 0
KAHS 231554Z 30007KT 19/03 A3002 RMK A01 T01920034  RH  035%=      5-min Rain = 0
KAHS 231555Z 31008KT 19/03 A3002 RMK A01 T01930026  RH  033%=      5-min Rain = 0
KAHS 231556Z 30006KT 19/02 A3002 RMK A01 T01930024  RH  032%=      5-min Rain = 0
KAHS 231557Z 29008KT 19/03 A3002 RMK A01 T01940027  RH  033%=      5-min Rain = 0
KAHS 231558Z 30011KT 19/02 A3002 RMK A01 T01940018  RH  031%=      5-min Rain = 0
KAHS 231559Z 30011KT 19/00 A3002 RMK A01 T01940003  RH  028%=      5-min Rain = 0
KAHS 231600Z 29011KT 20/00 A3002 RMK A01 T01960002  RH  027%=      5-min Rain = 0
KAHS 231601Z 31013KT 20/M01 A3002 RMK A01 T01961012  RH  025%=      5-min Rain = 0
KAHS 231602Z 31013KT 20/M01 A3001 RMK A01 T01951009  RH  025%=      5-min Rain = 0
KAHS 231603Z 30014KT 20/M02 A3002 RMK A01 T01951015  RH  024%=      5-min Rain = 0
KAHS 231604Z 31014KT 20/M01 A3002 RMK A01 T01951014  RH  024%=      5-min Rain = 0
KAHS 231605Z 32012KT 20/M01 A3002 RMK A01 T01951013  RH  024%=      5-min Rain = 0
KAHS 231606Z 32014KT 20/M02 A3001 RMK A01 T01951019  RH  023%=      5-min Rain = 0
KAHS 231607Z 31013KT 20/M02 A3002 RMK A01 T01951019  RH  024%=      5-min Rain = 0
KAHS 231608Z 31011KT 20/M01 A3002 RMK A01 T01961012  RH  025%=      5-min Rain = 0
KAHS 231609Z 31010KT 20/M00 A3002 RMK A01 T01991002  RH  026%=      5-min Rain = 0
KAHS 231610Z 31009KT 20/M00 A3002 RMK A01 T02001001  RH  026%=      5-min Rain = 0
KAHS 231611Z 31008KT 20/00 A3002 RMK A01 T02020004  RH  027%=      5-min Rain = 0
KAHS 231612Z 30010KT 20/M00 A3002 RMK A01 T02031003  RH  025%=      5-min Rain = 0
KAHS 231613Z 30012KT 20/M02 A3002 RMK A01 T02011015  RH  023%=      5-min Rain = 0
KAHS 231614Z 30010KT 20/M01 A3002 RMK A01 T02001012  RH  024%=      5-min Rain = 0
KAHS 231615Z 29011KT 20/M00 A3002 RMK A01 T02021004  RH  025%=      5-min Rain = 0
KAHS 231616Z 30013KT 20/M01 A3002 RMK A01 T02031012  RH  024%=      5-min Rain = 0
KAHS 231617Z 30010KT 20/M02 A3002 RMK A01 T02001017  RH  023%=      5-min Rain = 0
KAHS 231618Z 31007KT 20/00 A3002 RMK A01 T02030002  RH  026%=      5-min Rain = 0
KAHS 231619Z 31010KT 21/M00 A3002 RMK A01 T02051002  RH  025%=      5-min Rain = 0
KAHS 231620Z 32011KT 21/M00 A3002 RMK A01 T02051004  RH  025%=      5-min Rain = 0
KAHS 231621Z 32010KT 20/M01 A3002 RMK A01 T02041011  RH  024%=      5-min Rain = 0
KAHS 231622Z 32011KT 20/M01 A3002 RMK A01 T02041005  RH  025%=      5-min Rain = 0
KAHS 231623Z 32012KT 20/M01 A3002 RMK A01 T02041010  RH  024%=      5-min Rain = 0
KAHS 231624Z 32011KT 20/M02 A3002 RMK A01 T02021015  RH  023%=      5-min Rain = 0
KAHS 231625Z 31012KT 20/M01 A3002 RMK A01 T02021009  RH  024%=      5-min Rain = 0
KAHS 231626Z 32010KT 20/M00 A3002 RMK A01 T02041003  RH  025%=      5-min Rain = 0
KAHS 231627Z 31012KT 20/M01 A3002 RMK A01 T02041010  RH  024%=      5-min Rain = 0
KAHS 231628Z 30014KT 20/M01 A3002 RMK A01 T02031012  RH  024%=      5-min Rain = 0
KAHS 231629Z 30013KT 20/M02 A3002 RMK A01 T02011020  RH  022%=      5-min Rain = 0
KAHS 231630Z 30012KT 20/M02 A3002 RMK A01 T02011016  RH  023%=      5-min Rain = 0
KAHS 231631Z 30011KT 20/M01 A3002 RMK A01 T02021011  RH  024%=      5-min Rain = 0
KAHS 231632Z 31011KT 20/M01 A3002 RMK A01 T02031007  RH  024%=      5-min Rain = 0
KAHS 231633Z 31009G14KT 20/M01 A3002 RMK A01 T02021009  RH  024%=      5-min Rain = 0
KAHS 231634Z 31010G15KT 21/00 A3002 RMK A01 T02050003  RH  026%=      5-min Rain = 0
KAHS 231635Z 31012KT 21/M01 A3002 RMK A01 T02061008  RH  024%=      5-min Rain = 0
KAHS 231636Z 30012KT 21/M01 A3002 RMK A01 T02051010  RH  023%=      5-min Rain = 0
KAHS 231637Z 29013KT 21/M02 A3002 RMK A01 T02051016  RH  023%=      5-min Rain = 0
KAHS 231638Z 29013KT 20/M02 A3002 RMK A01 T02031019  RH  022%=      5-min Rain = 0
KAHS 231639Z 30009KT 20/M02 A3002 RMK A01 T02031016  RH  023%=      5-min Rain = 0
KAHS 231640Z 30010KT 21/M01 A3002 RMK A01 T02051012  RH  023%=      5-min Rain = 0
KAHS 231641Z 30012KT 21/M01 A3002 RMK A01 T02051014  RH  023%=      5-min Rain = 0
KAHS 231642Z 30010KT 21/M02 A3002 RMK A01 T02051015  RH  023%=      5-min Rain = 0
KAHS 231643Z 29011KT 20/M02 A3002 RMK A01 T02041018  RH  022%=      5-min Rain = 0
KAHS 231644Z 30014KT 20/M01 A3002 RMK A01 T02041014  RH  023%=      5-min Rain = 0
KAHS 231645Z 31012KT 20/M01 A3002 RMK A01 T02041013  RH  023%=      5-min Rain = 0
KAHS 231646Z 29010KT 21/M01 A3002 RMK A01 T02051010  RH  024%=      5-min Rain = 0
KAHS 231647Z 29011KT 21/M02 A3002 RMK A01 T02061015  RH  023%=      5-min Rain = 0
KAHS 231648Z 30013KT 21/M02 A3002 RMK A01 T02051016  RH  023%=      5-min Rain = 0
KAHS 231649Z 29012KT 20/M01 A3002 RMK A01 T02041013  RH  023%=      5-min Rain = 0
KAHS 231650Z 29010G16KT 20/M02 A3002 RMK A01 T02041015  RH  023%=      5-min Rain = 0
KAHS 231651Z 30012KT 20/M01 A3002 RMK A01 T02041014  RH  023%=      5-min Rain = 0
KAHS 231652Z 29011KT 20/M01 A3002 RMK A01 T02041013  RH  023%=      5-min Rain = 0
KAHS 231653Z 28011KT 20/M01 A3002 RMK A01 T02041014  RH  023%=      5-min Rain = 0
KAHS 231654Z 31010KT 21/M01 A3002 RMK A01 T02051006  RH  024%=      5-min Rain = 0
KAHS 231655Z 29007KT 21/M00 A3002 RMK A01 T02061002  RH  025%=      5-min Rain = 0
KAHS 231656Z 29008KT 21/M00 A3002 RMK A01 T02091003  RH  024%=      5-min Rain = 0
KAHS 231657Z 28010KT 21/M01 A3002 RMK A01 T02091006  RH  024%=      5-min Rain = 0
KAHS 231658Z 28011KT 21/M01 A3002 RMK A01 T02071014  RH  023%=      5-min Rain = 0
KAHS 231659Z 27008KT 21/M01 A3002 RMK A01 T02071011  RH  023%=      5-min Rain = 0
KAHS 231700Z 31009KT 21/M01 A3002 RMK A01 T02091008  RH  023%=      5-min Rain = 0
KAHS 231701Z 29007KT 21/M01 A3002 RMK A01 T02081011  RH  023%=      5-min Rain = 0
KAHS 231702Z 28011KT 21/M01 A3002 RMK A01 T02091007  RH  023%=      5-min Rain = 0
KAHS 231703Z 30011KT 21/M01 A3002 RMK A01 T02101010  RH  023%=      5-min Rain = 0
KAHS 231704Z 30012KT 21/M02 A3002 RMK A01 T02071023  RH  021%=      5-min Rain = 0
KAHS 231705Z 30012KT 21/M02 A3002 RMK A01 T02051016  RH  022%=      5-min Rain = 0
KAHS 231706Z 29012KT 21/M02 A3002 RMK A01 T02051017  RH  022%=      5-min Rain = 0
KAHS 231707Z 31010KT 21/M02 A3002 RMK A01 T02051015  RH  023%=      5-min Rain = 0
KAHS 231708Z 31010KT 21/M01 A3002 RMK A01 T02071009  RH  024%=      5-min Rain = 0
KAHS 231709Z 28010G15KT 21/M00 A3002 RMK A01 T02101002  RH  024%=      5-min Rain = 0
KAHS 231710Z 26011KT 21/M01 A3002 RMK A01 T02091012  RH  023%=      5-min Rain = 0
KAHS 231711Z 26012KT 21/M01 A3002 RMK A01 T02081013  RH  023%=      5-min Rain = 0
KAHS 231712Z 26012KT 21/M01 A3002 RMK A01 T02071013  RH  023%=      5-min Rain = 0
KAHS 231713Z 26011KT 21/M01 A3002 RMK A01 T02071012  RH  023%=      5-min Rain = 0
KAHS 231714Z 28013KT 21/M01 A3002 RMK A01 T02081013  RH  023%=      5-min Rain = 0
KAHS 231715Z 29013KT 21/M01 A3002 RMK A01 T02091008  RH  023%=      5-min Rain = 0
KAHS 231716Z 31012KT 21/M01 A3002 RMK A01 T02101012  RH  023%=      5-min Rain = 0
KAHS 231717Z 29009KT 21/M01 A3002 RMK A01 T02091011  RH  023%=      5-min Rain = 0
KAHS 231718Z 29013KT 21/M01 A3002 RMK A01 T02101009  RH  023%=      5-min Rain = 0
KAHS 231719Z 29010KT 21/M02 A3002 RMK A01 T02091015  RH  022%=      5-min Rain = 0
KAHS 231720Z 29012KT 21/M02 A3002 RMK A01 T02071018  RH  022%=      5-min Rain = 0
KAHS 231721Z 29012KT 21/M01 A3002 RMK A01 T02071014  RH  023%=      5-min Rain = 0
KAHS 231722Z 29011KT 21/M01 A3002 RMK A01 T02091011  RH  023%=      5-min Rain = 0
KAHS 231723Z 28010KT 21/M01 A3001 RMK A01 T02111005  RH  024%=      5-min Rain = 0
KAHS 231724Z 28011KT 21/M01 A3001 RMK A01 T02131007  RH  023%=      5-min Rain = 0
KAHS 231725Z 28013KT 21/M02 A3001 RMK A01 T02111015  RH  022%=      5-min Rain = 0
KAHS 231726Z 28014KT 21/M02 A3001 RMK A01 T02091017  RH  022%=      5-min Rain = 0
KAHS 231727Z 27012KT 21/M01 A3001 RMK A01 T02091014  RH  022%=      5-min Rain = 0
KAHS 231728Z 26012KT 21/M01 A3001 RMK A01 T02101009  RH  023%=      5-min Rain = 0
KAHS 231729Z 25012KT 21/M02 A3001 RMK A01 T02091015  RH  022%=      5-min Rain = 0
KAHS 231730Z 25010KT 21/M01 A3001 RMK A01 T02081014  RH  022%=      5-min Rain = 0
KAHS 231731Z 27010KT 21/M01 A3001 RMK A01 T02081012  RH  023%=      5-min Rain = 0
KAHS 231732Z 29009G14KT 21/M00 A3001 RMK A01 T02101004  RH  024%=      5-min Rain = 0
KAHS 231733Z 30013KT 21/M00 A3001 RMK A01 T02111003  RH  024%=      5-min Rain = 0
KAHS 231734Z 29015KT 21/M00 A3001 RMK A01 T02121004  RH  024%=      5-min Rain = 0
KAHS 231735Z 27014KT 21/M01 A3001 RMK A01 T02111011  RH  023%=      5-min Rain = 0
KAHS 231736Z 27010KT 21/M01 A3001 RMK A01 T02091010  RH  023%=      5-min Rain = 0
KAHS 231737Z 27010KT 21/M00 A3001 RMK A01 T02121003  RH  024%=      5-min Rain = 0
KAHS 231738Z 29008KT 21/M00 A3001 RMK A01 T02121001  RH  024%=      5-min Rain = 0
KAHS 231739Z 31010KT 22/M00 A3001 RMK A01 T02151002  RH  024%=      5-min Rain = 0
KAHS 231740Z 31010KT 21/M01 A3001 RMK A01 T02131006  RH  023%=      5-min Rain = 0
KAHS 231741Z 28010G16KT 21/M01 A3001 RMK A01 T02131005  RH  023%=      5-min Rain = 0
KAHS 231742Z 28013KT 21/M01 A3001 RMK A01 T02131005  RH  023%=      5-min Rain = 0
KAHS 231743Z 28013KT 21/M01 A3001 RMK A01 T02121009  RH  023%=      5-min Rain = 0
KAHS 231744Z 27010KT 21/M01 A3001 RMK A01 T02101011  RH  023%=      5-min Rain = 0
KAHS 231745Z 28010KT 21/M00 A3001 RMK A01 T02111001  RH  024%=      5-min Rain = 0
KAHS 231746Z 26011KT 21/00 A3001 RMK A01 T021400-0  RH  024%=      5-min Rain = 0
KAHS 231747Z 27011KT 21/M01 A3001 RMK A01 T02121008  RH  023%=      5-min Rain = 0
KAHS 231748Z 27009KT 21/M01 A3001 RMK A01 T02101012  RH  022%=      5-min Rain = 0
KAHS 231749Z 28009KT 21/00 A3001 RMK A01 T02130004  RH  025%=      5-min Rain = 0
KAHS 231750Z 27011KT 22/00 A3001 RMK A01 T02170003  RH  024%=      5-min Rain = 0
KAHS 231751Z 26010KT 22/M01 A3001 RMK A01 T02171005  RH  023%=      5-min Rain = 0
KAHS 231752Z 27011KT 22/00 A3001 RMK A01 T02180002  RH  024%=      5-min Rain = 0
KAHS 231753Z 27012KT 22/00 A3001 RMK A01 T02210002  RH  023%=      5-min Rain = 0
KAHS 231754Z 27014KT 22/M00 A3001 RMK A01 T02201003  RH  023%=      5-min Rain = 0
KAHS 231755Z 27012KT 22/M01 A3001 RMK A01 T02181011  RH  022%=      5-min Rain = 0
KAHS 231756Z 26011KT 22/M01 A3001 RMK A01 T02161011  RH  022%=      5-min Rain = 0
KAHS 231757Z 29012KT 22/M01 A3001 RMK A01 T02161006  RH  023%=      5-min Rain = 0
KAHS 231758Z 28011KT 22/M00 A3001 RMK A01 T02161004  RH  023%=      5-min Rain = 0
KAHS 231759Z 28010KT 22/M01 A3001 RMK A01 T02171008  RH  022%=      5-min Rain = 0
KAHS 231800Z 28010KT 22/M01 A3001 RMK A01 T02171007  RH  022%=      5-min Rain = 0
KAHS 231801Z 28011KT 22/M01 A3001 RMK A01 T02161009  RH  022%=      5-min Rain = 0
KAHS 231802Z 26011KT 22/M01 A3001 RMK A01 T02171005  RH  023%=      5-min Rain = 0
KAHS 231803Z 27013KT 22/M01 A3001 RMK A01 T02171009  RH  022%=      5-min Rain = 0
KAHS 231804Z 26013KT 22/M01 A3001 RMK A01 T02171006  RH  023%=      5-min Rain = 0
KAHS 231805Z 27011KT 22/M01 A3001 RMK A01 T02171007  RH  022%=      5-min Rain = 0
KAHS 231806Z 27011KT 22/M01 A3001 RMK A01 T02171010  RH  022%=      5-min Rain = 0
KAHS 231807Z 26011KT 22/M01 A3001 RMK A01 T02161011  RH  022%=      5-min Rain = 0
KAHS 231808Z 27008KT 22/M01 A3001 RMK A01 T02171006  RH  023%=      5-min Rain = 0
KAHS 231809Z 28008KT 22/M01 A3001 RMK A01 T02171007  RH  022%=      5-min Rain = 0
KAHS 231810Z 26006KT 22/M00 A30 RMK A01 T02181004  RH  023%=      5-min Rain = 0
KAHS 231811Z 27007KT 22/M01 A30 RMK A01 T02181009  RH  022%=      5-min Rain = 0
KAHS 231812Z 29010KT 22/M00 A30 RMK A01 T02191001  RH  023%=      5-min Rain = 0
KAHS 231813Z 27012KT 22/M00 A30 RMK A01 T02201003  RH  023%=      5-min Rain = 0
KAHS 231814Z 27011G16KT 22/M01 A30 RMK A01 T02181011  RH  022%=      5-min Rain = 0
KAHS 231815Z 28010KT 22/M01 A30 RMK A01 T02161010  RH  022%=      5-min Rain = 0
KAHS 231816Z 27011KT 22/M01 A30 RMK A01 T02161011  RH  022%=      5-min Rain = 0
KAHS 231817Z 26009KT 22/M01 A30 RMK A01 T02161011  RH  022%=      5-min Rain = 0
KAHS 231818Z 27006KT 22/M01 A30 RMK A01 T02151009  RH  022%=      5-min Rain = 0
KAHS 231819Z 29009G15KT 22/M00 A30 RMK A01 T02181001  RH  023%=      5-min Rain = 0
KAHS 231820Z 29012KT 22/00 A30 RMK A01 T02210003  RH  023%=      5-min Rain = 0
KAHS 231821Z 28012G17KT 22/M01 A30 RMK A01 T02211007  RH  022%=      5-min Rain = 0
KAHS 231822Z 28008KT 22/M01 A30 RMK A01 T02181009  RH  022%=      5-min Rain = 0
KAHS 231823Z 26009KT 22/M00 A30 RMK A01 T02201003  RH  023%=      5-min Rain = 0
KAHS 231824Z 26010KT 22/M01 A30 RMK A01 T02201007  RH  022%=      5-min Rain = 0
KAHS 231825Z 26007KT 22/M01 A30 RMK A01 T02191009  RH  022%=      5-min Rain = 0
KAHS 231826Z 27005KT 22/M01 A30 RMK A01 T02201010  RH  022%=      5-min Rain = 0
KAHS 231827Z 27004KT 22/M01 A30 RMK A01 T02191009  RH  022%=      5-min Rain = 0
KAHS 231828Z 27010KT 22/M00 A2999 RMK A01 T02201004  RH  022%=      5-min Rain = 0
KAHS 231829Z 28012G17KT 22/00 A2999 RMK A01 T022300-0  RH  023%=      5-min Rain = 0
KAHS 231830Z 29015KT 22/M00 A2999 RMK A01 T02231003  RH  022%=      5-min Rain = 0
KAHS 231831Z 27013KT 22/M00 A2999 RMK A01 T02231003  RH  022%=      5-min Rain = 0
KAHS 231832Z 28011KT 22/M01 A2999 RMK A01 T02231009  RH  021%=      5-min Rain = 0
KAHS 231833Z 28009KT 22/M01 A2999 RMK A01 T02221010  RH  021%=      5-min Rain = 0
KAHS 231834Z 27008KT 22/M01 A2999 RMK A01 T02201013  RH  021%=      5-min Rain = 0
KAHS 231835Z 27010KT 22/M00 A2999 RMK A01 T02211003  RH  023%=      5-min Rain = 0
KAHS 231836Z 29012KT 23/00 A2999 RMK A01 T02250004  RH  023%=      5-min Rain = 0
KAHS 231837Z 29012KT 22/M01 A2999 RMK A01 T02241007  RH  021%=      5-min Rain = 0
KAHS 231838Z 27007KT 22/M01 A2999 RMK A01 T02231010  RH  021%=      5-min Rain = 0
KAHS 231839Z 29007KT 22/M01 A2999 RMK A01 T02221012  RH  021%=      5-min Rain = 0
KAHS 231840Z 29010KT 22/M01 A2999 RMK A01 T02231008  RH  021%=      5-min Rain = 0
KAHS 231841Z 27011G16KT 22/M01 A2999 RMK A01 T02231007  RH  022%=      5-min Rain = 0
KAHS 231842Z 28013KT 22/M01 A2999 RMK A01 T02231011  RH  021%=      5-min Rain = 0
KAHS 231843Z 27012KT 22/M01 A2999 RMK A01 T02231008  RH  021%=      5-min Rain = 0
KAHS 231844Z 27011KT 22/M01 A2999 RMK A01 T02231009  RH  021%=      5-min Rain = 0
KAHS 231845Z 26011KT 22/M01 A2999 RMK A01 T02231009  RH  021%=      5-min Rain = 0
KAHS 231846Z 28010KT 22/M01 A2999 RMK A01 T02241006  RH  022%=      5-min Rain = 0
KAHS 231847Z 26009KT 22/M01 A2999 RMK A01 T02231013  RH  021%=      5-min Rain = 0
KAHS 231848Z 26012KT 22/M01 A2998 RMK A01 T02231008  RH  021%=      5-min Rain = 0
KAHS 231849Z 26011KT 22/M01 A2999 RMK A01 T02231011  RH  021%=      5-min Rain = 0
KAHS 231850Z 28011KT 22/M01 A2998 RMK A01 T02231010  RH  021%=      5-min Rain = 0
KAHS 231851Z 27011KT 22/M01 A2998 RMK A01 T02231008  RH  021%=      5-min Rain = 0
KAHS 231852Z 27010KT 22/M01 A2998 RMK A01 T02221012  RH  021%=      5-min Rain = 0
KAHS 231853Z 28007KT 22/M02 A2998 RMK A01 T02211016  RH  020%=      5-min Rain = 0
KAHS 231854Z 27008KT 22/M01 A2998 RMK A01 T02211010  RH  021%=      5-min Rain = 0
KAHS 231855Z 25012KT 22/M01 A2998 RMK A01 T02231006  RH  022%=      5-min Rain = 0
KAHS 231856Z 23008KT 22/M02 A2998 RMK A01 T02211019  RH  020%=      5-min Rain = 0
KAHS 231857Z 24007KT 22/M01 A2998 RMK A01 T02211011  RH  021%=      5-min Rain = 0
KAHS 231858Z 28009KT 22/M01 A2998 RMK A01 T02231008  RH  021%=      5-min Rain = 0
KAHS 231859Z 28011KT 22/M01 A2998 RMK A01 T02241005  RH  022%=      5-min Rain = 0
KAHS 231900Z 28009KT 23/M00 A2998 RMK A01 T02261004  RH  022%=      5-min Rain = 0
KAHS 231901Z 29011KT 23/M01 A2998 RMK A01 T02261005  RH  021%=      5-min Rain = 0
KAHS 231902Z 28008KT 23/M01 A2998 RMK A01 T02261005  RH  021%=      5-min Rain = 0
KAHS 231903Z 28009KT 23/00 A2998 RMK A01 T02280001  RH  022%=      5-min Rain = 0
KAHS 231904Z 29009KT 23/M01 A2998 RMK A01 T02281007  RH  021%=      5-min Rain = 0
KAHS 231905Z 28009KT 23/M01 A2998 RMK A01 T02271005  RH  021%=      5-min Rain = 0
KAHS 231906Z 30007KT 23/M01 A2998 RMK A01 T02271006  RH  021%=      5-min Rain = 0
KAHS 231907Z 29008KT 23/M00 A2998 RMK A01 T02271003  RH  022%=      5-min Rain = 0
KAHS 231908Z 28008KT 23/M00 A2998 RMK A01 T02281001  RH  022%=      5-min Rain = 0
KAHS 231909Z 27010KT 23/00 A2998 RMK A01 T02310001  RH  022%=      5-min Rain = 0
KAHS 231910Z 26010KT 23/M00 A2998 RMK A01 T02321001  RH  021%=      5-min Rain = 0
KAHS 231911Z 26010KT 23/M00 A2997 RMK A01 T02331001  RH  021%=      5-min Rain = 0
KAHS 231912Z 25010KT 23/M01 A2997 RMK A01 T02321007  RH  020%=      5-min Rain = 0
KAHS 231913Z 24009KT 23/M01 A2997 RMK A01 T02311007  RH  021%=      5-min Rain = 0
KAHS 231914Z 24012KT 23/M00 A2997 RMK A01 T02311004  RH  021%=      5-min Rain = 0
KAHS 231915Z 26011KT 23/M01 A2997 RMK A01 T02301011  RH  020%=      5-min Rain = 0
KAHS 231916Z 25010KT 23/M01 A2997 RMK A01 T02291009  RH  021%=      5-min Rain = 0
KAHS 231917Z 25010KT 23/M01 A2997 RMK A01 T02291012  RH  020%=      5-min Rain = 0
KAHS 231918Z 26009KT 23/M01 A2997 RMK A01 T02291009  RH  021%=      5-min Rain = 0
KAHS 231919Z 25008KT 23/M01 A2997 RMK A01 T02291009  RH  021%=      5-min Rain = 0
KAHS 231920Z 25009KT 23/M01 A2997 RMK A01 T02291011  RH  020%=      5-min Rain = 0
KAHS 231921Z 25009KT 23/M01 A2997 RMK A01 T02301005  RH  021%=      5-min Rain = 0
KAHS 231922Z 26012G19KT 23/M01 A2997 RMK A01 T02321006  RH  021%=      5-min Rain = 0
KAHS 231923Z 27014KT 23/M00 A2997 RMK A01 T02331002  RH  021%=      5-min Rain = 0
KAHS 231924Z 28012KT 23/M01 A2997 RMK A01 T02331010  RH  020%=      5-min Rain = 0
KAHS 231925Z 26013KT 23/M01 A2997 RMK A01 T02321010  RH  020%=      5-min Rain = 0
KAHS 231926Z 27012KT 23/M01 A2997 RMK A01 T02321010  RH  020%=      5-min Rain = 0
KAHS 231927Z 27009KT 23/M02 A2997 RMK A01 T02291020  RH  019%=      5-min Rain = 0
KAHS 231928Z 24007KT 23/M02 A2997 RMK A01 T02271017  RH  020%=      5-min Rain = 0
KAHS 231929Z 23009KT 23/M01 A2997 RMK A01 T02291007  RH  021%=      5-min Rain = 0
KAHS 231930Z 22010KT 23/M01 A2997 RMK A01 T02311009  RH  020%=      5-min Rain = 0
KAHS 231931Z 22011KT 23/M01 A2997 RMK A01 T02321007  RH  020%=      5-min Rain = 0
KAHS 231932Z 24010G15KT 23/M01 A2997 RMK A01 T02311012  RH  020%=      5-min Rain = 0
KAHS 231933Z 25009G14KT 23/M02 A2997 RMK A01 T02311017  RH  019%=      5-min Rain = 0
KAHS 231934Z 24012KT 23/M01 A2997 RMK A01 T02321012  RH  020%=      5-min Rain = 0
KAHS 231935Z 24013G18KT 23/M01 A2996 RMK A01 T02341005  RH  020%=      5-min Rain = 0
KAHS 231936Z 22015KT 24/M01 A2997 RMK A01 T02351007  RH  020%=      5-min Rain = 0
KAHS 231937Z 22013KT 23/M01 A2997 RMK A01 T02341013  RH  019%=      5-min Rain = 0
KAHS 231938Z 22014KT 23/M02 A2996 RMK A01 T02311019  RH  019%=      5-min Rain = 0
KAHS 231939Z 24013KT 23/M01 A2996 RMK A01 T02311012  RH  020%=      5-min Rain = 0
KAHS 231940Z 25013KT 23/M01 A2996 RMK A01 T02311014  RH  019%=      5-min Rain = 0
KAHS 231941Z 24012KT 24/M00 A2997 RMK A01 T02351003  RH  021%=      5-min Rain = 0
KAHS 231942Z 25009KT 24/M01 A2997 RMK A01 T02371006  RH  020%=      5-min Rain = 0
KAHS 231943Z 22011KT 24/M01 A2996 RMK A01 T02381008  RH  020%=      5-min Rain = 0
KAHS 231944Z 22011KT 24/M02 A2996 RMK A01 T02361021  RH  018%=      5-min Rain = 0
KAHS 231945Z 24009KT 23/M01 A2997 RMK A01 T02341014  RH  019%=      5-min Rain = 0
KAHS 231946Z 25011KT 24/M01 A2996 RMK A01 T02371009  RH  019%=      5-min Rain = 0
KAHS 231947Z 25011KT 24/M01 A2996 RMK A01 T02361013  RH  019%=      5-min Rain = 0
KAHS 231948Z 26012KT 24/M01 A2996 RMK A01 T02371008  RH  020%=      5-min Rain = 0
KAHS 231949Z 25011KT 24/M00 A2996 RMK A01 T02391003  RH  020%=      5-min Rain = 0
KAHS 231950Z 25015KT 24/M01 A2996 RMK A01 T02401006  RH  020%=      5-min Rain = 0
KAHS 231951Z 24012KT 24/M01 A2996 RMK A01 T02381014  RH  019%=      5-min Rain = 0
KAHS 231952Z 23014KT 24/M02 A2996 RMK A01 T02361017  RH  018%=      5-min Rain = 0
KAHS 231953Z 23013KT 24/M02 A2996 RMK A01 T02351018  RH  019%=      5-min Rain = 0
KAHS 231954Z 22014KT 24/M02 A2996 RMK A01 T02361015  RH  019%=      5-min Rain = 0
KAHS 231955Z 24015KT 24/M02 A2996 RMK A01 T02351019  RH  018%=      5-min Rain = 0
KAHS 231956Z 25014KT 24/M02 A2996 RMK A01 T02351020  RH  018%=      5-min Rain = 0
KAHS 231957Z 26012KT 24/M02 A2996 RMK A01 T02351022  RH  018%=      5-min Rain = 0
KAHS 231958Z 27012KT 23/M02 A2996 RMK A01 T02341021  RH  018%=      5-min Rain = 0
KAHS 231959Z 25015KT 24/M01 A2996 RMK A01 T02351014  RH  019%=      5-min Rain = 0
KAHS 232000Z 24012KT 24/M01 A2996 RMK A01 T02361014  RH  019%=      5-min Rain = 0
KAHS 232001Z 24013KT 24/M01 A2996 RMK A01 T02371014  RH  019%=      5-min Rain = 0
KAHS 232002Z 25012KT 24/M01 A2996 RMK A01 T02361013  RH  019%=      5-min Rain = 0
KAHS 232003Z 25010KT 24/M01 A2996 RMK A01 T02391008  RH  019%=      5-min Rain = 0
KAHS 232004Z 26012KT 24/M01 A2996 RMK A01 T02401010  RH  019%=      5-min Rain = 0
KAHS 232005Z 26010KT 24/M01 A2996 RMK A01 T02401012  RH  019%=      5-min Rain = 0
KAHS 232006Z 24010KT 24/M01 A2996 RMK A01 T02401011  RH  019%=      5-min Rain = 0
KAHS 232007Z 23008KT 24/M01 A2996 RMK A01 T02401011  RH  019%=      5-min Rain = 0
KAHS 232008Z 23016G23KT 24/M01 A2996 RMK A01 T02421008  RH  019%=      5-min Rain = 0
KAHS 232009Z 24018KT 24/M02 A2996 RMK A01 T02391018  RH  018%=      5-min Rain = 0
KAHS 232010Z 25016KT 24/M02 A2996 RMK A01 T02381018  RH  018%=      5-min Rain = 0
KAHS 232011Z 25013G18KT 24/M02 A2996 RMK A01 T02371022  RH  018%=      5-min Rain = 0
KAHS 232012Z 24014KT 24/M02 A2996 RMK A01 T02371019  RH  018%=      5-min Rain = 0
KAHS 232013Z 24014KT 24/M02 A2995 RMK A01 T02371020  RH  018%=      5-min Rain = 0
KAHS 232014Z 25013G18KT 24/M02 A2996 RMK A01 T02371020  RH  018%=      5-min Rain = 0
KAHS 232015Z 25015KT 24/M02 A2996 RMK A01 T02361022  RH  018%=      5-min Rain = 0
KAHS 232016Z 25011KT 24/M02 A2996 RMK A01 T02381015  RH  019%=      5-min Rain = 0
KAHS 232017Z 25009KT 24/M02 A2996 RMK A01 T02371020  RH  018%=      5-min Rain = 0
KAHS 232018Z 26017G22KT 24/M02 A2996 RMK A01 T02381019  RH  018%=      5-min Rain = 0
KAHS 232019Z 25015KT 24/M03 A2996 RMK A01 T02381030  RH  017%=      5-min Rain = 0
KAHS 232020Z 26010KT 24/M03 A2996 RMK A01 T02371031  RH  017%=      5-min Rain = 0
KAHS 232021Z 27012KT 24/M03 A2996 RMK A01 T02381028  RH  017%=      5-min Rain = 0
KAHS 232022Z 27013KT 24/M02 A2995 RMK A01 T02401019  RH  018%=      5-min Rain = 0
KAHS 232023Z 25011KT 24/M02 A2995 RMK A01 T02411021  RH  017%=      5-min Rain = 0
KAHS 232024Z 25013KT 24/M01 A2995 RMK A01 T02431013  RH  018%=      5-min Rain = 0
KAHS 232025Z 26014KT 25/M01 A2996 RMK A01 T02471009  RH  018%=      5-min Rain = 0
KAHS 232026Z 27016KT 25/M02 A2995 RMK A01 T02471016  RH  018%=      5-min Rain = 0
KAHS 232027Z 28015KT 25/M02 A2995 RMK A01 T02451017  RH  018%=      5-min Rain = 0
KAHS 232028Z 28015G20KT 25/M02 A2995 RMK A01 T02451018  RH  017%=      5-min Rain = 0
KAHS 232029Z 28018KT 24/M02 A2995 RMK A01 T02431020  RH  017%=      5-min Rain = 0
KAHS 232030Z 28015KT 24/M02 A2995 RMK A01 T02411024  RH  017%=      5-min Rain = 0
KAHS 232031Z 28011KT 24/M03 A2996 RMK A01 T02401025  RH  017%=      5-min Rain = 0
KAHS 232032Z 27011KT 24/M02 A2995 RMK A01 T02411018  RH  018%=      5-min Rain = 0
KAHS 232033Z 28012KT 24/M01 A2995 RMK A01 T02421014  RH  018%=      5-min Rain = 0
KAHS 232034Z 28014KT 25/M01 A2995 RMK A01 T02451012  RH  018%=      5-min Rain = 0
KAHS 232035Z 26014KT 25/M01 A2995 RMK A01 T02451012  RH  018%=      5-min Rain = 0
KAHS 232036Z 24012KT 25/M01 A2995 RMK A01 T02451014  RH  018%=      5-min Rain = 0
KAHS 232037Z 24009KT 25/M01 A2996 RMK A01 T02451009  RH  019%=      5-min Rain = 0
KAHS 232038Z 23009KT 24/M01 A2995 RMK A01 T02441013  RH  018%=      5-min Rain = 0
KAHS 232039Z 25009KT 24/M01 A2995 RMK A01 T02431011  RH  019%=      5-min Rain = 0
KAHS 232040Z 26012KT 24/M02 A2995 RMK A01 T02411019  RH  018%=      5-min Rain = 0
KAHS 232041Z 27013KT 24/M02 A2995 RMK A01 T02391021  RH  018%=      5-min Rain = 0
KAHS 232042Z 27014KT 24/M03 A2995 RMK A01 T02381026  RH  017%=      5-min Rain = 0
KAHS 232043Z 26016KT 24/M02 A2995 RMK A01 T02361024  RH  018%=      5-min Rain = 0
KAHS 232044Z 26013KT 24/M02 A2995 RMK A01 T02351021  RH  018%=      5-min Rain = 0
KAHS 232045Z 27009G14KT 23/M02 A2995 RMK A01 T02341019  RH  018%=      5-min Rain = 0
KAHS 232046Z 26010G18KT 24/M01 A2995 RMK A01 T02361013  RH  019%=      5-min Rain = 0
KAHS 232047Z 26013KT 23/M02 A2995 RMK A01 T02341024  RH  018%=      5-min Rain = 0
KAHS 232048Z 27013KT 23/M02 A2995 RMK A01 T02331021  RH  018%=      5-min Rain = 0
KAHS 232049Z 26012KT 23/M02 A2995 RMK A01 T02341017  RH  019%=      5-min Rain = 0
KAHS 232050Z 25016KT 23/M02 A2995 RMK A01 T02331018  RH  019%=      5-min Rain = 0
KAHS 232051Z 24016KT 23/M03 A2995 RMK A01 T02321026  RH  018%=      5-min Rain = 0
KAHS 232052Z 25014KT 23/M03 A2995 RMK A01 T02311028  RH  018%=      5-min Rain = 0
KAHS 232053Z 25012G18KT 23/M02 A2995 RMK A01 T02321015  RH  019%=      5-min Rain = 0
KAHS 232054Z 24015G21KT 23/M02 A2995 RMK A01 T02331016  RH  019%=      5-min Rain = 0
KAHS 232055Z 25013KT 23/M02 A2995 RMK A01 T02331018  RH  019%=      5-min Rain = 0
KAHS 232056Z 24013KT 23/M02 A2995 RMK A01 T02331019  RH  019%=      5-min Rain = 0
KAHS 232057Z 24012KT 23/M01 A2995 RMK A01 T02341014  RH  019%=      5-min Rain = 0
KAHS 232058Z 24010KT 23/M02 A2995 RMK A01 T02331021  RH  018%=      5-min Rain = 0
KAHS 232059Z 24011KT 23/M02 A2995 RMK A01 T02331018  RH  019%=      5-min Rain = 0
KAHS 232100Z 24011KT 23/M02 A2995 RMK A01 T02341018  RH  019%=      5-min Rain = 0
KAHS 232101Z 23011KT 23/M02 A2995 RMK A01 T02341019  RH  019%=      5-min Rain = 0
KAHS 232102Z 24015KT 23/M02 A2994 RMK A01 T02341021  RH  018%=      5-min Rain = 0
KAHS 232103Z 28015G20KT 24/M02 A2994 RMK A01 T02351016  RH  019%=      5-min Rain = 0
KAHS 232104Z 26009KT 24/M02 A2995 RMK A01 T02351020  RH  018%=      5-min Rain = 0
KAHS 232105Z 25009KT 24/M02 A2995 RMK A01 T02351015  RH  019%=      5-min Rain = 0
KAHS 232106Z 25010KT 24/M01 A2995 RMK A01 T02371010  RH  019%=      5-min Rain = 0
KAHS 232107Z 23011KT 24/M01 A2995 RMK A01 T02381009  RH  019%=      5-min Rain = 0
KAHS 232108Z 24015KT 24/M02 A2994 RMK A01 T02371018  RH  018%=      5-min Rain = 0
KAHS 232109Z 24011KT 24/M02 A2995 RMK A01 T02361016  RH  019%=      5-min Rain = 0
KAHS 232110Z 26011KT 24/M01 A2995 RMK A01 T02381008  RH  020%=      5-min Rain = 0
KAHS 232111Z 26013KT 24/M01 A2995 RMK A01 T02381011  RH  019%=      5-min Rain = 0
KAHS 232112Z 24013KT 24/M02 A2995 RMK A01 T02371017  RH  018%=      5-min Rain = 0
KAHS 232113Z 24011KT 24/M01 A2995 RMK A01 T02371014  RH  019%=      5-min Rain = 0
KAHS 232114Z 22014KT 24/M02 A2994 RMK A01 T02371017  RH  018%=      5-min Rain = 0
KAHS 232115Z 23016KT 24/M02 A2994 RMK A01 T02361022  RH  018%=      5-min Rain = 0
KAHS 232116Z 23014KT 24/M02 A2995 RMK A01 T02361024  RH  018%=      5-min Rain = 0
KAHS 232117Z 24014G19KT 24/M02 A2995 RMK A01 T02351020  RH  018%=      5-min Rain = 0
KAHS 232118Z 24016KT 24/M02 A2995 RMK A01 T02351022  RH  018%=      5-min Rain = 0
KAHS 232119Z 24011KT 23/M02 A2995 RMK A01 T02341024  RH  018%=      5-min Rain = 0
KAHS 232120Z 26008KT 24/M01 A2995 RMK A01 T02361013  RH  019%=      5-min Rain = 0
KAHS 232121Z 25011KT 24/M01 A2995 RMK A01 T02361014  RH  019%=      5-min Rain = 0
KAHS 232122Z 25014G19KT 24/M02 A2994 RMK A01 T02351019  RH  018%=      5-min Rain = 0
KAHS 232123Z 24014KT 23/M02 A2994 RMK A01 T02341021  RH  018%=      5-min Rain = 0
KAHS 232124Z 24014G19KT 23/M02 A2994 RMK A01 T02331021  RH  018%=      5-min Rain = 0
KAHS 232125Z 26016KT 23/M02 A2994 RMK A01 T02331016  RH  019%=      5-min Rain = 0
KAHS 232126Z 25017KT 23/M02 A2994 RMK A01 T02331021  RH  018%=      5-min Rain = 0
KAHS 232127Z 25016KT 23/M03 A2994 RMK A01 T02321025  RH  018%=      5-min Rain = 0
KAHS 232128Z 25015KT 23/M02 A2994 RMK A01 T02311024  RH  018%=      5-min Rain = 0
KAHS 232129Z 25014KT 23/M02 A2995 RMK A01 T02331018  RH  019%=      5-min Rain = 0
KAHS 232130Z 25015KT 23/M03 A2994 RMK A01 T02321025  RH  018%=      5-min Rain = 0
KAHS 232131Z 25013KT 23/M02 A2995 RMK A01 T02321021  RH  018%=      5-min Rain = 0
KAHS 232132Z 25014KT 23/M02 A2994 RMK A01 T02331019  RH  019%=      5-min Rain = 0
KAHS 232133Z 25017KT 23/M02 A2994 RMK A01 T02321022  RH  018%=      5-min Rain = 0
KAHS 232134Z 24015KT 23/M03 A2994 RMK A01 T02311026  RH  018%=      5-min Rain = 0
KAHS 232135Z 24016KT 23/M02 A2994 RMK A01 T02311023  RH  018%=      5-min Rain = 0
KAHS 232136Z 25017KT 23/M03 A2994 RMK A01 T02311025  RH  018%=      5-min Rain = 0
KAHS 232137Z 24014KT 23/M02 A2994 RMK A01 T02321023  RH  018%=      5-min Rain = 0
KAHS 232138Z 24013KT 23/M02 A2994 RMK A01 T02331023  RH  018%=      5-min Rain = 0
KAHS 232139Z 26016KT 24/M02 A2994 RMK A01 T02351021  RH  018%=      5-min Rain = 0
KAHS 232140Z 25012KT 24/M02 A2994 RMK A01 T02351022  RH  018%=      5-min Rain = 0
KAHS 232141Z 24014KT 24/M02 A2994 RMK A01 T02361019  RH  018%=      5-min Rain = 0
KAHS 232142Z 23012G17KT 24/M02 A2994 RMK A01 T02371020  RH  018%=      5-min Rain = 0
KAHS 232143Z 23012KT 24/M02 A2994 RMK A01 T02381017  RH  018%=      5-min Rain = 0
KAHS 232144Z 23012KT 24/M02 A2994 RMK A01 T02381015  RH  019%=      5-min Rain = 0
KAHS 232145Z 25013KT 24/M02 A2994 RMK A01 T02401015  RH  018%=      5-min Rain = 0
KAHS 232146Z 25014KT 24/M02 A2994 RMK A01 T02391021  RH  018%=      5-min Rain = 0
KAHS 232147Z 25013KT 24/M02 A2994 RMK A01 T02391019  RH  018%=      5-min Rain = 0
KAHS 232148Z 24013G18KT 24/M02 A2994 RMK A01 T02391018  RH  018%=      5-min Rain = 0
KAHS 232149Z 24012KT 24/M02 A2994 RMK A01 T02381022  RH  018%=      5-min Rain = 0
KAHS 232150Z 23012KT 24/M02 A2994 RMK A01 T02381021  RH  018%=      5-min Rain = 0
KAHS 232151Z 23012KT 24/M02 A2994 RMK A01 T02381019  RH  018%=      5-min Rain = 0
KAHS 232152Z 25013KT 24/M02 A2994 RMK A01 T02391017  RH  018%=      5-min Rain = 0
KAHS 232153Z 25012KT 24/M02 A2994 RMK A01 T02401018  RH  018%=      5-min Rain = 0
KAHS 232154Z 25010KT 24/M02 A2994 RMK A01 T02411015  RH  018%=      5-min Rain = 0
KAHS 232155Z 25012G17KT 24/M01 A2994 RMK A01 T02421011  RH  019%=      5-min Rain = 0
KAHS 232156Z 26014KT 24/M01 A2994 RMK A01 T02431012  RH  018%=      5-min Rain = 0
KAHS 232157Z 24011KT 24/M01 A2994 RMK A01 T02431013  RH  018%=      5-min Rain = 0
KAHS 232158Z 23012G17KT 24/M02 A2994 RMK A01 T02431017  RH  018%=      5-min Rain = 0
KAHS 232159Z 22012G17KT 24/M01 A2994 RMK A01 T02431014  RH  018%=      5-min Rain = 0
KAHS 232200Z 22014KT 24/M02 A2994 RMK A01 T02431016  RH  018%=      5-min Rain = 0
KAHS 232201Z 24013G20KT 24/M01 A2994 RMK A01 T02441013  RH  018%=      5-min Rain = 0
KAHS 232202Z 25012KT 24/M02 A2994 RMK A01 T02431018  RH  018%=      5-min Rain = 0
KAHS 232203Z 25012KT 24/M02 A2994 RMK A01 T02431015  RH  018%=      5-min Rain = 0
KAHS 232204Z 25011G18KT 24/M01 A2994 RMK A01 T02441013  RH  018%=      5-min Rain = 0
KAHS 232205Z 25011G18KT 25/M01 A2994 RMK A01 T02461007  RH  019%=      5-min Rain = 0
KAHS 232206Z 26012KT 25/M01 A2994 RMK A01 T02461009  RH  019%=      5-min Rain = 0
KAHS 232207Z 26012KT 24/M01 A2994 RMK A01 T02441013  RH  018%=      5-min Rain = 0
KAHS 232208Z 26013KT 24/M02 A2994 RMK A01 T02431015  RH  018%=      5-min Rain = 0
KAHS 232209Z 27011KT 24/M02 A2994 RMK A01 T02401024  RH  017%=      5-min Rain = 0
KAHS 232210Z 26010G15KT 24/M02 A2993 RMK A01 T02391021  RH  018%=      5-min Rain = 0
KAHS 232211Z 23010G15KT 24/M01 A2994 RMK A01 T02401011  RH  019%=      5-min Rain = 0
KAHS 232212Z 24012KT 24/M01 A2993 RMK A01 T02401014  RH  019%=      5-min Rain = 0
KAHS 232213Z 25013G19KT 24/M01 A2993 RMK A01 T02401014  RH  018%=      5-min Rain = 0
KAHS 232214Z 25017KT 24/M02 A2993 RMK A01 T02391023  RH  017%=      5-min Rain = 0
KAHS 232215Z 24014KT 24/M02 A2993 RMK A01 T02371022  RH  018%=      5-min Rain = 0
KAHS 232216Z 23014KT 24/M03 A2993 RMK A01 T02371025  RH  017%=      5-min Rain = 0
KAHS 232217Z 23015G20KT 24/M03 A2993 RMK A01 T02371026  RH  017%=      5-min Rain = 0
KAHS 232218Z 24015KT 24/M02 A2993 RMK A01 T02381023  RH  018%=      5-min Rain = 0
KAHS 232219Z 25014KT 24/M02 A2993 RMK A01 T02391020  RH  018%=      5-min Rain = 0
KAHS 232220Z 24015KT 24/M02 A2993 RMK A01 T02401018  RH  018%=      5-min Rain = 0
KAHS 232221Z 22013KT 24/M02 A2993 RMK A01 T02411016  RH  018%=      5-min Rain = 0
KAHS 232222Z 22011KT 24/M02 A2993 RMK A01 T02411020  RH  017%=      5-min Rain = 0
KAHS 232223Z 22010KT 24/M02 A2993 RMK A01 T02431015  RH  018%=      5-min Rain = 0
KAHS 232224Z 22013G18KT 25/M01 A2993 RMK A01 T02451012  RH  018%=      5-min Rain = 0
KAHS 232225Z 22014G19KT 24/M02 A2993 RMK A01 T02441017  RH  018%=      5-min Rain = 0
KAHS 232226Z 23012G18KT 24/M02 A2993 RMK A01 T02421022  RH  017%=      5-min Rain = 0
KAHS 232227Z 25012KT 24/M02 A2993 RMK A01 T02411020  RH  018%=      5-min Rain = 0
KAHS 232228Z 26015KT 24/M02 A2993 RMK A01 T02391024  RH  017%=      5-min Rain = 0
KAHS 232229Z 26012KT 24/M02 A2993 RMK A01 T02381022  RH  018%=      5-min Rain = 0
KAHS 232230Z 23012KT 24/M02 A2993 RMK A01 T02381017  RH  018%=      5-min Rain = 0
KAHS 232231Z 23011KT 24/M01 A2993 RMK A01 T02401013  RH  019%=      5-min Rain = 0
KAHS 232232Z 24012G19KT 24/M01 A2993 RMK A01 T02431011  RH  019%=      5-min Rain = 0
KAHS 232233Z 25016KT 24/M02 A2993 RMK A01 T02431020  RH  017%=      5-min Rain = 0
KAHS 232234Z 25010KT 24/M02 A2993 RMK A01 T02431024  RH  017%=      5-min Rain = 0
KAHS 232235Z 25010KT 24/M02 A2993 RMK A01 T02441018  RH  018%=      5-min Rain = 0
KAHS 232236Z 24010KT 25/M02 A2993 RMK A01 T02451016  RH  018%=      5-min Rain = 0
KAHS 232237Z 22012KT 25/M01 A2993 RMK A01 T02471010  RH  018%=      5-min Rain = 0
KAHS 232238Z 23011KT 25/M01 A2993 RMK A01 T02481011  RH  018%=      5-min Rain = 0
KAHS 232239Z 23012KT 25/M02 A2993 RMK A01 T02471016  RH  018%=      5-min Rain = 0
KAHS 232240Z 23013KT 25/M02 A2993 RMK A01 T02471017  RH  017%=      5-min Rain = 0
KAHS 232241Z 25012KT 25/M02 A2993 RMK A01 T02471018  RH  017%=      5-min Rain = 0
KAHS 232242Z 25013KT 25/M02 A2993 RMK A01 T02471024  RH  017%=      5-min Rain = 0
KAHS 232243Z 25011KT 25/M03 A2992 RMK A01 T02461029  RH  016%=      5-min Rain = 0
KAHS 232244Z 26007KT 25/M02 A2993 RMK A01 T02471019  RH  017%=      5-min Rain = 0
KAHS 232245Z 26009KT 25/M02 A2992 RMK A01 T02491018  RH  017%=      5-min Rain = 0
KAHS 232246Z 25008KT 25/M02 A2992 RMK A01 T02501018  RH  017%=      5-min Rain = 0
KAHS 232247Z 25009KT 25/M01 A2992 RMK A01 T02511013  RH  017%=      5-min Rain = 0
KAHS 232248Z 27010KT 25/M02 A2993 RMK A01 T02511016  RH  017%=      5-min Rain = 0
KAHS 232249Z 27011KT 25/M02 A2992 RMK A01 T02521018  RH  017%=      5-min Rain = 0
KAHS 232250Z 27011KT 25/M02 A2992 RMK A01 T02511017  RH  017%=      5-min Rain = 0
KAHS 232251Z 23012G18KT 25/M02 A2993 RMK A01 T02491015  RH  017%=      5-min Rain = 0
KAHS 232252Z 23016KT 25/M02 A2992 RMK A01 T02471021  RH  017%=      5-min Rain = 0
KAHS 232253Z 25011KT 24/M02 A2993 RMK A01 T02441024  RH  017%=      5-min Rain = 0
KAHS 232254Z 25013KT 24/M03 A2993 RMK A01 T02421025  RH  017%=      5-min Rain = 0
KAHS 232255Z 25014KT 24/M03 A2993 RMK A01 T02411034  RH  016%=      5-min Rain = 0
KAHS 232256Z 25014KT 24/M04 A2993 RMK A01 T02401037  RH  016%=      5-min Rain = 0
KAHS 232257Z 25012KT 24/M04 A2993 RMK A01 T02381042  RH  015%=      5-min Rain = 0
KAHS 232258Z 25014KT 24/M04 A2993 RMK A01 T02371041  RH  015%=      5-min Rain = 0
KAHS 232259Z 25011KT 24/M04 A2993 RMK A01 T02371038  RH  016%=      5-min Rain = 0
KAHS 232300Z 25009KT 24/M03 A2993 RMK A01 T02361033  RH  016%=      5-min Rain = 0
KAHS 232301Z 26012KT 24/M04 A2993 RMK A01 T02361037  RH  016%=      5-min Rain = 0
KAHS 232302Z 26011KT 24/M04 A2993 RMK A01 T02361040  RH  016%=      5-min Rain = 0
KAHS 232303Z 26011KT 24/M04 A2993 RMK A01 T02361036  RH  016%=      5-min Rain = 0
KAHS 232304Z 24010KT 24/M04 A2993 RMK A01 T02361037  RH  016%=      5-min Rain = 0
KAHS 232305Z 24010KT 24/M03 A2993 RMK A01 T02371033  RH  016%=      5-min Rain = 0
KAHS 232306Z 25014KT 24/M03 A2993 RMK A01 T02371033  RH  016%=      5-min Rain = 0
KAHS 232307Z 25015KT 24/M04 A2993 RMK A01 T02371039  RH  016%=      5-min Rain = 0
KAHS 232308Z 23018KT 24/M04 A2992 RMK A01 T02381039  RH  016%=      5-min Rain = 0
KAHS 232309Z 24017KT 24/M04 A2993 RMK A01 T02371039  RH  016%=      5-min Rain = 0
KAHS 232310Z 25014KT 24/M04 A2993 RMK A01 T02381040  RH  015%=      5-min Rain = 0
KAHS 232311Z 24011KT 24/M03 A2993 RMK A01 T02391030  RH  017%=      5-min Rain = 0
KAHS 232312Z 26011KT 24/M03 A2993 RMK A01 T02391028  RH  017%=      5-min Rain = 0
KAHS 232313Z 26013KT 24/M04 A2993 RMK A01 T02381038  RH  016%=      5-min Rain = 0
KAHS 232314Z 26011KT 24/M04 A2993 RMK A01 T02371035  RH  016%=      5-min Rain = 0
KAHS 232315Z 28012G18KT 24/M03 A2993 RMK A01 T02381026  RH  017%=      5-min Rain = 0
KAHS 232316Z 28011KT 24/M03 A2993 RMK A01 T02381028  RH  017%=      5-min Rain = 0
KAHS 232317Z 27010KT 24/M03 A2993 RMK A01 T02381028  RH  017%=      5-min Rain = 0
KAHS 232318Z 26008KT 24/M02 A2993 RMK A01 T02401022  RH  018%=      5-min Rain = 0
KAHS 232319Z 26010KT 24/M02 A2993 RMK A01 T02421020  RH  018%=      5-min Rain = 0
KAHS 232320Z 26012KT 24/M03 A2992 RMK A01 T02421031  RH  016%=      5-min Rain = 0
KAHS 232321Z 27011KT 24/M03 A2992 RMK A01 T02421032  RH  016%=      5-min Rain = 0
KAHS 232322Z 26009KT 24/M03 A2992 RMK A01 T02411031  RH  016%=      5-min Rain = 0
KAHS 232323Z 27010G15KT 24/M03 A2992 RMK A01 T02411026  RH  017%=      5-min Rain = 0
KAHS 232324Z 27013KT 24/M03 A2992 RMK A01 T02401028  RH  017%=      5-min Rain = 0
KAHS 232325Z 26011KT 24/M03 A2992 RMK A01 T02381032  RH  016%=      5-min Rain = 0
KAHS 232326Z 25011KT 24/M03 A2992 RMK A01 T02371029  RH  017%=      5-min Rain = 0
KAHS 232327Z 23009KT 24/M02 A2992 RMK A01 T02371023  RH  018%=      5-min Rain = 0
KAHS 232328Z 23010KT 24/M03 A2992 RMK A01 T02371027  RH  017%=      5-min Rain = 0
KAHS 232329Z 23010KT 24/M03 A2992 RMK A01 T02361028  RH  017%=      5-min Rain = 0
KAHS 232330Z 23010KT 24/M03 A2992 RMK A01 T02351032  RH  017%=      5-min Rain = 0
KAHS 232331Z 23012KT 24/M04 A2992 RMK A01 T02351035  RH  016%=      5-min Rain = 0
KAHS 232332Z 23009KT 24/M03 A2992 RMK A01 T02351032  RH  017%=      5-min Rain = 0
KAHS 232333Z 24007KT 24/M03 A2992 RMK A01 T02351032  RH  017%=      5-min Rain = 0
KAHS 232334Z 24008KT 23/M03 A2992 RMK A01 T02341026  RH  018%=      5-min Rain = 0
KAHS 232335Z 24010KT 23/M03 A2992 RMK A01 T02341026  RH  018%=      5-min Rain = 0
KAHS 232336Z 25011KT 23/M03 A2992 RMK A01 T02331031  RH  017%=      5-min Rain = 0
KAHS 232337Z 24011KT 23/M03 A2992 RMK A01 T02331034  RH  017%=      5-min Rain = 0
KAHS 232338Z 23009KT 23/M03 A2992 RMK A01 T02331033  RH  017%=      5-min Rain = 0
KAHS 232339Z 24009KT 23/M03 A2992 RMK A01 T02331032  RH  017%=      5-min Rain = 0
KAHS 232340Z 25008KT 23/M03 A2992 RMK A01 T02331029  RH  017%=      5-min Rain = 0
KAHS 232341Z 25007KT 23/M03 A2992 RMK A01 T02331028  RH  017%=      5-min Rain = 0
KAHS 232342Z 26007KT 23/M02 A2992 RMK A01 T02321023  RH  018%=      5-min Rain = 0
KAHS 232343Z 25008KT 23/M02 A2992 RMK A01 T02321024  RH  018%=      5-min Rain = 0
KAHS 232344Z 26009KT 23/M03 A2992 RMK A01 T02321027  RH  018%=      5-min Rain = 0
KAHS 232345Z 26009KT 23/M03 A2992 RMK A01 T02311027  RH  018%=      5-min Rain = 0
KAHS 232346Z 26009KT 23/M03 A2992 RMK A01 T02311025  RH  018%=      5-min Rain = 0
KAHS 232347Z 25009KT 23/M02 A2992 RMK A01 T02311024  RH  018%=      5-min Rain = 0
KAHS 232348Z 25008KT 23/M03 A2992 RMK A01 T02311027  RH  018%=      5-min Rain = 0
KAHS 232349Z 25008KT 23/M02 A2992 RMK A01 T02311024  RH  018%=      5-min Rain = 0
KAHS 232350Z 24006KT 23/M02 A2992 RMK A01 T02311024  RH  018%=      5-min Rain = 0
KAHS 232351Z 24006KT 23/M02 A2992 RMK A01 T02301017  RH  019%=      5-min Rain = 0
KAHS 232352Z 24007KT 23/M02 A2992 RMK A01 T02301021  RH  019%=      5-min Rain = 0
KAHS 232353Z 25006KT 23/M02 A2992 RMK A01 T02291019  RH  019%=      5-min Rain = 0
KAHS 232354Z 25007KT 23/M02 A2992 RMK A01 T02291020  RH  019%=      5-min Rain = 0
KAHS 232355Z 25006KT 23/M02 A2992 RMK A01 T02291022  RH  019%=      5-min Rain = 0
KAHS 232356Z 25005KT 23/M02 A2992 RMK A01 T02291020  RH  019%=      5-min Rain = 0
KAHS 232357Z 25005KT 23/M02 A2992 RMK A01 T02281019  RH  019%=      5-min Rain = 0
KAHS 232358Z 24006KT 23/M02 A2992 RMK A01 T02281017  RH  020%=      5-min Rain = 0
KAHS 232359Z 25005KT 23/M02 A2992 RMK A01 T02271021  RH  019%=      5-min Rain = 0
KAHS 240000Z 25005KT 23/M02 A2992 RMK A01 T02271020  RH  019%=      5-min Rain = 0
KAHS 240001Z 24006KT 23/M02 A2992 RMK A01 T02281020  RH  019%=      5-min Rain = 0
KAHS 240002Z 24007KT 23/M02 A2992 RMK A01 T02281023  RH  019%=      5-min Rain = 0
KAHS 240003Z 24006KT 23/M02 A2992 RMK A01 T02291024  RH  018%=      5-min Rain = 0
KAHS 240004Z 23006KT 23/M02 A2993 RMK A01 T02301021  RH  019%=      5-min Rain = 0
KAHS 240005Z 23007KT 23/M02 A2993 RMK A01 T02311020  RH  019%=      5-min Rain = 0
KAHS 240006Z 23007KT 23/M02 A2993 RMK A01 T02321024  RH  018%=      5-min Rain = 0
KAHS 240007Z 23009KT 23/M03 A2993 RMK A01 T02331027  RH  018%=      5-min Rain = 0
KAHS 240008Z 23009KT 23/M03 A2993 RMK A01 T02331025  RH  018%=      5-min Rain = 0
KAHS 240009Z 23010KT 23/M03 A2993 RMK A01 T02341028  RH  017%=      5-min Rain = 0
KAHS 240010Z 22009KT 23/M03 A2993 RMK A01 T02341026  RH  018%=      5-min Rain = 0
KAHS 240011Z 22010KT 23/M03 A2993 RMK A01 T02331028  RH  017%=      5-min Rain = 0
KAHS 240012Z 23008KT 23/M03 A2993 RMK A01 T02321027  RH  018%=      5-min Rain = 0
KAHS 240013Z 23009KT 23/M03 A2993 RMK A01 T02311026  RH  018%=      5-min Rain = 0
KAHS 240014Z 23011KT 23/M03 A2993 RMK A01 T02311029  RH  017%=      5-min Rain = 0
KAHS 240015Z 22009KT 23/M03 A2993 RMK A01 T02301029  RH  018%=      5-min Rain = 0
KAHS 240016Z 21007KT 23/M02 A2993 RMK A01 T02291024  RH  018%=      5-min Rain = 0
KAHS 240017Z 21008KT 23/M02 A2993 RMK A01 T02281022  RH  019%=      5-min Rain = 0
KAHS 240018Z 21008KT 23/M02 A2993 RMK A01 T02281024  RH  018%=      5-min Rain = 0
KAHS 240019Z 21010KT 23/M02 A2993 RMK A01 T02271023  RH  019%=      5-min Rain = 0
KAHS 240020Z 21012KT 23/M03 A2992 RMK A01 T02271028  RH  018%=      5-min Rain = 0
KAHS 240021Z 22008KT 23/M03 A2993 RMK A01 T02271025  RH  018%=      5-min Rain = 0
KAHS 240022Z 22008KT 23/M02 A2993 RMK A01 T02271023  RH  019%=      5-min Rain = 0
KAHS 240023Z 22009KT 23/M02 A2993 RMK A01 T02271021  RH  019%=      5-min Rain = 0
KAHS 240024Z 22008KT 23/M02 A2993 RMK A01 T02271023  RH  019%=      5-min Rain = 0
KAHS 240025Z 22008G13KT 23/M02 A2993 RMK A01 T02271024  RH  019%=      5-min Rain = 0
KAHS 240026Z 22011KT 23/M03 A2993 RMK A01 T02261026  RH  018%=      5-min Rain = 0
KAHS 240027Z 22010KT 23/M03 A2993 RMK A01 T02261028  RH  018%=      5-min Rain = 0
KAHS 240028Z 22009KT 23/M03 A2993 RMK A01 T02251027  RH  018%=      5-min Rain = 0
KAHS 240029Z 22008KT 23/M03 A2993 RMK A01 T02251027  RH  018%=      5-min Rain = 0
KAHS 240030Z 22008KT 22/M03 A2993 RMK A01 T02241027  RH  019%=      5-min Rain = 0
KAHS 240031Z 22008KT 22/M03 A2993 RMK A01 T02231025  RH  019%=      5-min Rain = 0
KAHS 240032Z 22009KT 22/M03 A2993 RMK A01 T02221026  RH  019%=      5-min Rain = 0
KAHS 240033Z 21008KT 22/M03 A2993 RMK A01 T02211025  RH  019%=      5-min Rain = 0
KAHS 240034Z 22009KT 22/M02 A2993 RMK A01 T02201024  RH  019%=      5-min Rain = 0
KAHS 240035Z 22008KT 22/M02 A2993 RMK A01 T02191024  RH  019%=      5-min Rain = 0
KAHS 240036Z 21007KT 22/M02 A2993 RMK A01 T02191024  RH  020%=      5-min Rain = 0
KAHS 240037Z 22007KT 22/M02 A2993 RMK A01 T02181022  RH  020%=      5-min Rain = 0
KAHS 240038Z 21007KT 22/M02 A2993 RMK A01 T02181022  RH  020%=      5-min Rain = 0
KAHS 240039Z 21007KT 22/M02 A2993 RMK A01 T02171021  RH  020%=      5-min Rain = 0
KAHS 240040Z 21008KT 22/M02 A2993 RMK A01 T02161022  RH  020%=      5-min Rain = 0
KAHS 240041Z 21008KT 22/M02 A2993 RMK A01 T02161022  RH  020%=      5-min Rain = 0
KAHS 240042Z 22008KT 22/M02 A2993 RMK A01 T02161023  RH  020%=      5-min Rain = 0
KAHS 240043Z 21008KT 22/M02 A2993 RMK A01 T02151023  RH  020%=      5-min Rain = 0
KAHS 240044Z 21008KT 21/M02 A2993 RMK A01 T02141023  RH  020%=      5-min Rain = 0
KAHS 240045Z 22008KT 21/M02 A2993 RMK A01 T02141024  RH  020%=      5-min Rain = 0
KAHS 240046Z 22008KT 21/M02 A2993 RMK A01 T02131024  RH  020%=      5-min Rain = 0
KAHS 240047Z 22007KT 21/M02 A2993 RMK A01 T02131023  RH  020%=      5-min Rain = 0
KAHS 240048Z 22007KT 21/M02 A2993 RMK A01 T02111022  RH  021%=      5-min Rain = 0
KAHS 240049Z 22007KT 21/M02 A2993 RMK A01 T02101022  RH  021%=      5-min Rain = 0
KAHS 240050Z 22007KT 21/M02 A2993 RMK A01 T02091021  RH  021%=      5-min Rain = 0
KAHS 240051Z 21007KT 21/M02 A2993 RMK A01 T02081020  RH  021%=      5-min Rain = 0
KAHS 240052Z 22007KT 21/M02 A2993 RMK A01 T02081020  RH  022%=      5-min Rain = 0
KAHS 240053Z 21006KT 21/M02 A2993 RMK A01 T02071019  RH  022%=      5-min Rain = 0
KAHS 240054Z 22006KT 21/M02 A2993 RMK A01 T02061019  RH  022%=      5-min Rain = 0
KAHS 240055Z 21007KT 21/M02 A2993 RMK A01 T02051022  RH  022%=      5-min Rain = 0
KAHS 240056Z 22007KT 20/M02 A2993 RMK A01 T02041020  RH  022%=      5-min Rain = 0
KAHS 240057Z 22007KT 20/M02 A2993 RMK A01 T02031021  RH  022%=      5-min Rain = 0
KAHS 240058Z 22006KT 20/M02 A2993 RMK A01 T02031021  RH  022%=      5-min Rain = 0
KAHS 240059Z 22006KT 20/M02 A2993 RMK A01 T02021021  RH  022%=      5-min Rain = 0
KAHS 240100Z 22006KT 20/M02 A2993 RMK A01 T02021020  RH  022%=      5-min Rain = 0
KAHS 240101Z 22006KT 20/M02 A2993 RMK A01 T02001020  RH  023%=      5-min Rain = 0
KAHS 240102Z 22006KT 20/M02 A2993 RMK A01 T02001019  RH  023%=      5-min Rain = 0
KAHS 240103Z 21006KT 20/M02 A2993 RMK A01 T01991020  RH  023%=      5-min Rain = 0
KAHS 240104Z 21006KT 20/M02 A2993 RMK A01 T01981020  RH  023%=      5-min Rain = 0
KAHS 240105Z 21006KT 20/M02 A2993 RMK A01 T01981019  RH  023%=      5-min Rain = 0
KAHS 240106Z 21006KT 20/M02 A2993 RMK A01 T01971020  RH  023%=      5-min Rain = 0
KAHS 240107Z 21006KT 20/M02 A2993 RMK A01 T01971019  RH  023%=      5-min Rain = 0
KAHS 240108Z 21006KT 20/M02 A2993 RMK A01 T01971019  RH  023%=      5-min Rain = 0
KAHS 240109Z 22006KT 20/M02 A2993 RMK A01 T01971020  RH  023%=      5-min Rain = 0
KAHS 240110Z 21006KT 20/M02 A2993 RMK A01 T01971020  RH  023%=      5-min Rain = 0
KAHS 240111Z 22006KT 20/M02 A2993 RMK A01 T01961020  RH  023%=      5-min Rain = 0
KAHS 240112Z 22006KT 20/M02 A2993 RMK A01 T01961019  RH  023%=      5-min Rain = 0
KAHS 240113Z 22006KT 20/M02 A2993 RMK A01 T01951019  RH  023%=      5-min Rain = 0
KAHS 240114Z 22006KT 20/M02 A2993 RMK A01 T01961019  RH  023%=      5-min Rain = 0
KAHS 240115Z 22006KT 20/M02 A2993 RMK A01 T01951018  RH  024%=      5-min Rain = 0
KAHS 240116Z 22006KT 19/M02 A2993 RMK A01 T01941017  RH  024%=      5-min Rain = 0
KAHS 240117Z 22005KT 19/M02 A2993 RMK A01 T01941017  RH  024%=      5-min Rain = 0
KAHS 240118Z 22005KT 19/M02 A2993 RMK A01 T01931017  RH  024%=      5-min Rain = 0
KAHS 240119Z 22005KT 19/M02 A2993 RMK A01 T01921017  RH  024%=      5-min Rain = 0
KAHS 240120Z 22006KT 19/M02 A2993 RMK A01 T01921017  RH  024%=      5-min Rain = 0
KAHS 240121Z 22005KT 19/M02 A2993 RMK A01 T01911017  RH  024%=      5-min Rain = 0
KAHS 240122Z 22005KT 19/M02 A2993 RMK A01 T01901017  RH  025%=      5-min Rain = 0
KAHS 240123Z 22005KT 19/M02 A2993 RMK A01 T01891016  RH  025%=      5-min Rain = 0
KAHS 240124Z 22006KT 19/M02 A2993 RMK A01 T01881016  RH  025%=      5-min Rain = 0
KAHS 240125Z 22005KT 19/M02 A2993 RMK A01 T01881017  RH  025%=      5-min Rain = 0
KAHS 240126Z 22006KT 19/M02 A2993 RMK A01 T01871017  RH  025%=      5-min Rain = 0
KAHS 240127Z 22006KT 19/M02 A2993 RMK A01 T01871017  RH  025%=      5-min Rain = 0
KAHS 240128Z 22006KT 19/M02 A2993 RMK A01 T01871017  RH  025%=      5-min Rain = 0
KAHS 240129Z 22006KT 19/M02 A2993 RMK A01 T01861017  RH  025%=      5-min Rain = 0
KAHS 240130Z 22006KT 19/M02 A2994 RMK A01 T01861017  RH  025%=      5-min Rain = 0
KAHS 240131Z 22006KT 19/M02 A2994 RMK A01 T01861017  RH  025%=      5-min Rain = 0
KAHS 240132Z 21005KT 19/M02 A2994 RMK A01 T01861017  RH  025%=      5-min Rain = 0
KAHS 240133Z 21005KT 19/M02 A2994 RMK A01 T01851017  RH  025%=      5-min Rain = 0
KAHS 240134Z 21005KT 19/M02 A2994 RMK A01 T01851016  RH  026%=      5-min Rain = 0
KAHS 240135Z 21004KT 18/M02 A2994 RMK A01 T01841016  RH  026%=      5-min Rain = 0
KAHS 240136Z 20004KT 18/M02 A2994 RMK A01 T01831016  RH  026%=      5-min Rain = 0
KAHS 240137Z 20005KT 18/M02 A2994 RMK A01 T01831017  RH  026%=      5-min Rain = 0
KAHS 240138Z 20005KT 18/M02 A2994 RMK A01 T01821018  RH  026%=      5-min Rain = 0
KAHS 240139Z 21005KT 18/M02 A2994 RMK A01 T01831018  RH  025%=      5-min Rain = 0
KAHS 240140Z 21005KT 18/M02 A2994 RMK A01 T01831018  RH  025%=      5-min Rain = 0
KAHS 240141Z 20004KT 18/M02 A2994 RMK A01 T01831018  RH  026%=      5-min Rain = 0
KAHS 240142Z 21004KT 18/M02 A2994 RMK A01 T01821017  RH  026%=      5-min Rain = 0
KAHS 240143Z 21005KT 18/M02 A2994 RMK A01 T01821017  RH  026%=      5-min Rain = 0
KAHS 240144Z 21005KT 18/M02 A2994 RMK A01 T01811017  RH  026%=      5-min Rain = 0
KAHS 240145Z 20004KT 18/M02 A2994 RMK A01 T01801015  RH  027%=      5-min Rain = 0
KAHS 240146Z 20004KT 18/M01 A2994 RMK A01 T01781014  RH  027%=      5-min Rain = 0
KAHS 240147Z 21004KT 18/M01 A2994 RMK A01 T01771013  RH  027%=      5-min Rain = 0
KAHS 240148Z 22004KT 18/M01 A2994 RMK A01 T01761012  RH  028%=      5-min Rain = 0
KAHS 240149Z 22004KT 18/M01 A2995 RMK A01 T01761013  RH  028%=      5-min Rain = 0
KAHS 240150Z 23003KT 18/M01 A2995 RMK A01 T01751014  RH  028%=      5-min Rain = 0
KAHS 240151Z 23002KT 17/M01 A2995 RMK A01 T01741014  RH  028%=      5-min Rain = 0
KAHS 240152Z 23003KT 17/M01 A2995 RMK A01 T01741014  RH  028%=      5-min Rain = 0
KAHS 240153Z 23003KT 17/M02 A2995 RMK A01 T01741015  RH  028%=      5-min Rain = 0
KAHS 240154Z 22004KT 17/M02 A2995 RMK A01 T01731016  RH  027%=      5-min Rain = 0
KAHS 240155Z 22004KT 17/M02 A2995 RMK A01 T01741017  RH  027%=      5-min Rain = 0
KAHS 240156Z 21004KT 17/M02 A2995 RMK A01 T01741017  RH  027%=      5-min Rain = 0
KAHS 240157Z 20004KT 18/M02 A2995 RMK A01 T01751017  RH  027%=      5-min Rain = 0
KAHS 240158Z 19004KT 17/M02 A2995 RMK A01 T01741016  RH  027%=      5-min Rain = 0
KAHS 240159Z 19005KT 17/M02 A2995 RMK A01 T01731015  RH  028%=      5-min Rain = 0
KAHS 240200Z 20006KT 17/M02 A2995 RMK A01 T01731015  RH  028%=      5-min Rain = 0
KAHS 240201Z 21006KT 17/M01 A2995 RMK A01 T01721014  RH  028%=      5-min Rain = 0
KAHS 240202Z 21007KT 17/M01 A2995 RMK A01 T01711014  RH  028%=      5-min Rain = 0
KAHS 240203Z 21006KT 17/M01 A2995 RMK A01 T01711013  RH  029%=      5-min Rain = 0
KAHS 240204Z 21007KT 17/M01 A2995 RMK A01 T01701012  RH  029%=      5-min Rain = 0
KAHS 240205Z 21007KT 17/M01 A2995 RMK A01 T01701013  RH  029%=      5-min Rain = 0
KAHS 240206Z 20006KT 17/M01 A2995 RMK A01 T01701013  RH  029%=      5-min Rain = 0
KAHS 240207Z 21006KT 17/M01 A2995 RMK A01 T01691013  RH  029%=      5-min Rain = 0
KAHS 240208Z 21006KT 17/M01 A2995 RMK A01 T01691013  RH  029%=      5-min Rain = 0
KAHS 240209Z 21006KT 17/M01 A2995 RMK A01 T01681013  RH  029%=      5-min Rain = 0
KAHS 240210Z 21006KT 17/M01 A2995 RMK A01 T01681013  RH  029%=      5-min Rain = 0
KAHS 240211Z 20006KT 17/M01 A2995 RMK A01 T01671013  RH  029%=      5-min Rain = 0
KAHS 240212Z 21006KT 17/M01 A2996 RMK A01 T01671014  RH  029%=      5-min Rain = 0
KAHS 240213Z 20006KT 17/M01 A2996 RMK A01 T01661013  RH  029%=      5-min Rain = 0
KAHS 240214Z 21006KT 17/M01 A2996 RMK A01 T01651013  RH  030%=      5-min Rain = 0
KAHS 240215Z 21006KT 17/M01 A2996 RMK A01 T01651013  RH  030%=      5-min Rain = 0
KAHS 240216Z 21006KT 17/M01 A2996 RMK A01 T01651012  RH  030%=      5-min Rain = 0
KAHS 240217Z 21006KT 17/M01 A2996 RMK A01 T01651013  RH  030%=      5-min Rain = 0
KAHS 240218Z 21006KT 17/M01 A2996 RMK A01 T01651013  RH  030%=      5-min Rain = 0
KAHS 240219Z 22006KT 17/M01 A2996 RMK A01 T01651012  RH  030%=      5-min Rain = 0
KAHS 240220Z 22006KT 17/M01 A2996 RMK A01 T01651012  RH  030%=      5-min Rain = 0
KAHS 240221Z 21006KT 17/M01 A2996 RMK A01 T01651012  RH  030%=      5-min Rain = 0
KAHS 240222Z 21006KT 17/M01 A2996 RMK A01 T01651012  RH  030%=      5-min Rain = 0
KAHS 240223Z 21007KT 17/M01 A2996 RMK A01 T01661012  RH  030%=      5-min Rain = 0
KAHS 240224Z 21007KT 17/M01 A2996 RMK A01 T01671013  RH  029%=      5-min Rain = 0
KAHS 240225Z 21006KT 17/M01 A2997 RMK A01 T01691013  RH  029%=      5-min Rain = 0
KAHS 240226Z 21006KT 17/M01 A2997 RMK A01 T01691013  RH  029%=      5-min Rain = 0
KAHS 240227Z 21005KT 17/M01 A2997 RMK A01 T01691012  RH  029%=      5-min Rain = 0
KAHS 240228Z 21005KT 17/M01 A2997 RMK A01 T01691012  RH  029%=      5-min Rain = 0
KAHS 240229Z 22005KT 17/M01 A2997 RMK A01 T01681012  RH  029%=      5-min Rain = 0
KAHS 240230Z 22005KT 17/M01 A2997 RMK A01 T01671012  RH  030%=      5-min Rain = 0
KAHS 240231Z 23004KT 17/M01 A2997 RMK A01 T01661012  RH  030%=      5-min Rain = 0
KAHS 240232Z 22004KT 17/M01 A2997 RMK A01 T01651013  RH  030%=      5-min Rain = 0
KAHS 240233Z 22005KT 16/M01 A2997 RMK A01 T01641014  RH  029%=      5-min Rain = 0
KAHS 240234Z 22004KT 17/M01 A2997 RMK A01 T01651014  RH  029%=      5-min Rain = 0
KAHS 240235Z 22005KT 16/M01 A2997 RMK A01 T01641014  RH  030%=      5-min Rain = 0
KAHS 240236Z 22005KT 16/M01 A2997 RMK A01 T01641014  RH  030%=      5-min Rain = 0
KAHS 240237Z 21006KT 16/M02 A2997 RMK A01 T01641015  RH  029%=      5-min Rain = 0
KAHS 240238Z 21006KT 17/M01 A2997 RMK A01 T01651014  RH  029%=      5-min Rain = 0
KAHS 240239Z 22006KT 16/M01 A2997 RMK A01 T01641014  RH  030%=      5-min Rain = 0
KAHS 240240Z 22006KT 16/M01 A2997 RMK A01 T01641014  RH  030%=      5-min Rain = 0
KAHS 240241Z 22006KT 16/M01 A2997 RMK A01 T01631014  RH  030%=      5-min Rain = 0
KAHS 240242Z 22006KT 16/M01 A2997 RMK A01 T01631013  RH  030%=      5-min Rain = 0
KAHS 240243Z 22005KT 16/M01 A2997 RMK A01 T01621014  RH  030%=      5-min Rain = 0
KAHS 240244Z 22006KT 16/M01 A2997 RMK A01 T01621014  RH  030%=      5-min Rain = 0
KAHS 240245Z 22006KT 16/M01 A2997 RMK A01 T01611013  RH  030%=      5-min Rain = 0
KAHS 240246Z 22006KT 16/M01 A2997 RMK A01 T01611013  RH  030%=      5-min Rain = 0
KAHS 240247Z 23006KT 16/M01 A2998 RMK A01 T01611013  RH  030%=      5-min Rain = 0
KAHS 240248Z 23005KT 16/M01 A2998 RMK A01 T01611013  RH  030%=      5-min Rain = 0
KAHS 240249Z 23006KT 16/M01 A2998 RMK A01 T01611013  RH  031%=      5-min Rain = 0
KAHS 240250Z 22005KT 16/M01 A2998 RMK A01 T01611013  RH  031%=      5-min Rain = 0
KAHS 240251Z 22006KT 16/M01 A2998 RMK A01 T01611013  RH  030%=      5-min Rain = 0
KAHS 240252Z 22005KT 16/M01 A2998 RMK A01 T01621013  RH  030%=      5-min Rain = 0
KAHS 240253Z 22005KT 16/M01 A2998 RMK A01 T01621014  RH  030%=      5-min Rain = 0
KAHS 240254Z 22005KT 16/M01 A2998 RMK A01 T01621013  RH  030%=      5-min Rain = 0
KAHS 240255Z 21005KT 16/M01 A2998 RMK A01 T01621013  RH  030%=      5-min Rain = 0
KAHS 240256Z 21004KT 16/M01 A2998 RMK A01 T01611013  RH  030%=      5-min Rain = 0
KAHS 240257Z 21005KT 16/M01 A2998 RMK A01 T01611013  RH  030%=      5-min Rain = 0
KAHS 240258Z 20005KT 16/M01 A2998 RMK A01 T01601013  RH  031%=      5-min Rain = 0
KAHS 240259Z 20005KT 16/M01 A2998 RMK A01 T01601013  RH  031%=      5-min Rain = 0
KAHS 240300Z 20005KT 16/M01 A2998 RMK A01 T01591013  RH  031%=      5-min Rain = 0
KAHS 240301Z 21005KT 16/M01 A2998 RMK A01 T01591013  RH  031%=      5-min Rain = 0
KAHS 240302Z 21004KT 16/M01 A2998 RMK A01 T01591012  RH  031%=      5-min Rain = 0
KAHS 240303Z 21004KT 16/M01 A2998 RMK A01 T01581012  RH  031%=      5-min Rain = 0
KAHS 240304Z 21004KT 16/M01 A2998 RMK A01 T01581012  RH  031%=      5-min Rain = 0
KAHS 240305Z 21003KT 16/M01 A2998 RMK A01 T01571012  RH  031%=      5-min Rain = 0
KAHS 240306Z 21004KT 16/M01 A2998 RMK A01 T01561011  RH  032%=      5-min Rain = 0
KAHS 240307Z 21004KT 16/M01 A2998 RMK A01 T01551011  RH  032%=      5-min Rain = 0
KAHS 240308Z 21003KT 15/M01 A2998 RMK A01 T01541011  RH  032%=      5-min Rain = 0
KAHS 240309Z 21003KT 15/M01 A2998 RMK A01 T01541011  RH  032%=      5-min Rain = 0
KAHS 240310Z 21004KT 15/M01 A2998 RMK A01 T01531011  RH  033%=      5-min Rain = 0
KAHS 240311Z 21004KT 15/M01 A2998 RMK A01 T01521010  RH  033%=      5-min Rain = 0
KAHS 240312Z 21004KT 15/M01 A2998 RMK A01 T01511010  RH  033%=      5-min Rain = 0
KAHS 240313Z 21004KT 15/M01 A2998 RMK A01 T01501010  RH  033%=      5-min Rain = 0
KAHS 240314Z 21004KT 15/M01 A2998 RMK A01 T01491011  RH  033%=      5-min Rain = 0
KAHS 240315Z 22004KT 15/M01 A2998 RMK A01 T01481010  RH  034%=      5-min Rain = 0
KAHS 240316Z 22004KT 15/M01 A2998 RMK A01 T01481011  RH  034%=      5-min Rain = 0
KAHS 240317Z 22004KT 15/M01 A2998 RMK A01 T01471011  RH  034%=      5-min Rain = 0
KAHS 240318Z 22004KT 15/M01 A2998 RMK A01 T01471011  RH  034%=      5-min Rain = 0
KAHS 240319Z 22004KT 15/M01 A2999 RMK A01 T01461012  RH  034%=      5-min Rain = 0
KAHS 240320Z 22004KT 15/M01 A2999 RMK A01 T01461012  RH  034%=      5-min Rain = 0
KAHS 240321Z 22004KT 15/M01 A2999 RMK A01 T01461012  RH  034%=      5-min Rain = 0
KAHS 240322Z 22004KT 15/M01 A2999 RMK A01 T01451012  RH  034%=      5-min Rain = 0
KAHS 240323Z 22004KT 15/M01 A2999 RMK A01 T01451012  RH  034%=      5-min Rain = 0
KAHS 240324Z 22004KT 14/M01 A2999 RMK A01 T01441012  RH  034%=      5-min Rain = 0
KAHS 240325Z 22004KT 14/M01 A2999 RMK A01 T01441012  RH  034%=      5-min Rain = 0
KAHS 240326Z 22004KT 14/M01 A2999 RMK A01 T01441011  RH  034%=      5-min Rain = 0
KAHS 240327Z 22004KT 14/M01 A2999 RMK A01 T01441011  RH  034%=      5-min Rain = 0
KAHS 240328Z 22004KT 14/M01 A2999 RMK A01 T01441011  RH  034%=      5-min Rain = 0
KAHS 240329Z 22004KT 14/M01 A2999 RMK A01 T01431011  RH  035%=      5-min Rain = 0
KAHS 240330Z 22004KT 14/M01 A2999 RMK A01 T01421011  RH  035%=      5-min Rain = 0
KAHS 240331Z 22004KT 14/M01 A2999 RMK A01 T01411010  RH  035%=      5-min Rain = 0
KAHS 240332Z 22004KT 14/M01 A2999 RMK A01 T01411010  RH  036%=      5-min Rain = 0
KAHS 240333Z 22004KT 14/M01 A2999 RMK A01 T01391009  RH  036%=      5-min Rain = 0
KAHS 240334Z 22004KT 14/M01 A2999 RMK A01 T01391009  RH  036%=      5-min Rain = 0
KAHS 240335Z 22004KT 14/M01 A2999 RMK A01 T01381008  RH  036%=      5-min Rain = 0
KAHS 240336Z 22004KT 14/M01 A2999 RMK A01 T01381009  RH  036%=      5-min Rain = 0
KAHS 240337Z 22004KT 14/M01 A2999 RMK A01 T01371010  RH  036%=      5-min Rain = 0
KAHS 240338Z 21004KT 14/M01 A2999 RMK A01 T01371010  RH  036%=      5-min Rain = 0
KAHS 240339Z 22004KT 14/M01 A2999 RMK A01 T01371011  RH  036%=      5-min Rain = 0
KAHS 240340Z 22004KT 14/M01 A2999 RMK A01 T01371011  RH  036%=      5-min Rain = 0
KAHS 240341Z 22004KT 14/M01 A2999 RMK A01 T01381011  RH  036%=      5-min Rain = 0
KAHS 240342Z 22004KT 14/M01 A2999 RMK A01 T01401012  RH  035%=      5-min Rain = 0
KAHS 240343Z 22004KT 14/M01 A2999 RMK A01 T01411012  RH  035%=      5-min Rain = 0
KAHS 240344Z 22004KT 14/M01 A2999 RMK A01 T01421013  RH  034%=      5-min Rain = 0
KAHS 240345Z 22004KT 14/M01 A2999 RMK A01 T01431013  RH  034%=      5-min Rain = 0
KAHS 240346Z 22004KT 14/M01 A2999 RMK A01 T01431013  RH  034%=      5-min Rain = 0
KAHS 240347Z 22004KT 14/M01 A2999 RMK A01 T01441012  RH  034%=      5-min Rain = 0
KAHS 240348Z 21003KT 14/M01 A2999 RMK A01 T01431012  RH  034%=      5-min Rain = 0
KAHS 240349Z 21003KT 14/M01 A2999 RMK A01 T01421011  RH  035%=      5-min Rain = 0
KAHS 240350Z 21003KT 14/M01 A2999 RMK A01 T01411011  RH  035%=      5-min Rain = 0
KAHS 240351Z 21003KT 14/M01 A2999 RMK A01 T01411011  RH  035%=      5-min Rain = 0
KAHS 240352Z 21003KT 14/M01 A2998 RMK A01 T01411011  RH  035%=      5-min Rain = 0
KAHS 240353Z 21003KT 14/M01 A2998 RMK A01 T01421011  RH  035%=      5-min Rain = 0
KAHS 240354Z 21003KT 14/M01 A2998 RMK A01 T01421011  RH  035%=      5-min Rain = 0
KAHS 240355Z 21004KT 14/M01 A2998 RMK A01 T01421011  RH  035%=      5-min Rain = 0
KAHS 240356Z 21004KT 14/M01 A2998 RMK A01 T01411010  RH  035%=      5-min Rain = 0
KAHS 240357Z 22004KT 14/M01 A2998 RMK A01 T01411010  RH  035%=      5-min Rain = 0
KAHS 240358Z 22004KT 14/M01 A2999 RMK A01 T01401010  RH  035%=      5-min Rain = 0
KAHS 240359Z 22004KT 14/M01 A2999 RMK A01 T01401010  RH  036%=      5-min Rain = 0
KAHS 240400Z 22004KT 14/M01 A2999 RMK A01 T01391010  RH  036%=      5-min Rain = 0
KAHS 240401Z 22004KT 14/M01 A2999 RMK A01 T01381011  RH  036%=      5-min Rain = 0
KAHS 240402Z 21005KT 14/M01 A2999 RMK A01 T01391010  RH  036%=      5-min Rain = 0
KAHS 240403Z 21005KT 14/M01 A2999 RMK A01 T01381010  RH  036%=      5-min Rain = 0
KAHS 240404Z 22005KT 14/M01 A2999 RMK A01 T01381009  RH  036%=      5-min Rain = 0
KAHS 240405Z 22005KT 14/M01 A2999 RMK A01 T01361009  RH  037%=      5-min Rain = 0
KAHS 240406Z 23005KT 13/M01 A2999 RMK A01 T01341008  RH  037%=      5-min Rain = 0
KAHS 240407Z 23005KT 13/M01 A2999 RMK A01 T01331008  RH  038%=      5-min Rain = 0
KAHS 240408Z 23004KT 13/M01 A2999 RMK A01 T01331008  RH  038%=      5-min Rain = 0
KAHS 240409Z 24004KT 13/M01 A2999 RMK A01 T01321008  RH  038%=      5-min Rain = 0
KAHS 240410Z 23005KT 13/M01 A2999 RMK A01 T01321008  RH  038%=      5-min Rain = 0
KAHS 240411Z 22005KT 13/M01 A2999 RMK A01 T01321008  RH  038%=      5-min Rain = 0
KAHS 240412Z 22005KT 13/M01 A2999 RMK A01 T01311008  RH  038%=      5-min Rain = 0
KAHS 240413Z 22005KT 13/M01 A2999 RMK A01 T01311007  RH  039%=      5-min Rain = 0
KAHS 240414Z 22005KT 13/M01 A2999 RMK A01 T01311007  RH  039%=      5-min Rain = 0
KAHS 240415Z 22005KT 13/M01 A2999 RMK A01 T01311008  RH  038%=      5-min Rain = 0
KAHS 240416Z 22005KT 13/M01 A2999 RMK A01 T01321007  RH  038%=      5-min Rain = 0
KAHS 240417Z 22005KT 13/M01 A2999 RMK A01 T01321007  RH  038%=      5-min Rain = 0
KAHS 240418Z 21005KT 13/M01 A2999 RMK A01 T01321007  RH  038%=      5-min Rain = 0
KAHS 240419Z 22005KT 13/M01 A2999 RMK A01 T01321007  RH  038%=      5-min Rain = 0
KAHS 240420Z 21005KT 13/M01 A2999 RMK A01 T01321006  RH  039%=      5-min Rain = 0
KAHS 240421Z 21005KT 13/M01 A2999 RMK A01 T01321006  RH  039%=      5-min Rain = 0
KAHS 240422Z 21005KT 13/M01 A2999 RMK A01 T01321006  RH  039%=      5-min Rain = 0
KAHS 240423Z 21006KT 13/M01 A2999 RMK A01 T01321006  RH  039%=      5-min Rain = 0
KAHS 240424Z 22005KT 13/M01 A2999 RMK A01 T01331005  RH  039%=      5-min Rain = 0
KAHS 240425Z 23005KT 13/M01 A2999 RMK A01 T01331005  RH  038%=      5-min Rain = 0
KAHS 240426Z 24004KT 13/M01 A2999 RMK A01 T01321006  RH  039%=      5-min Rain = 0
KAHS 240427Z 24004KT 13/M01 A2999 RMK A01 T01301006  RH  039%=      5-min Rain = 0
KAHS 240428Z 23004KT 13/M01 A2999 RMK A01 T01301005  RH  039%=      5-min Rain = 0
KAHS 240429Z 23005KT 13/M01 A2999 RMK A01 T01311005  RH  039%=      5-min Rain = 0
KAHS 240430Z 23005KT 13/M01 A2999 RMK A01 T01331005  RH  039%=      5-min Rain = 0
KAHS 240431Z 23005KT 13/M01 A2999 RMK A01 T01341005  RH  038%=      5-min Rain = 0
KAHS 240432Z 23005KT 14/M00 A2999 RMK A01 T01351004  RH  038%=      5-min Rain = 0
KAHS 240433Z 23005KT 13/M00 A2999 RMK A01 T01341004  RH  039%=      5-min Rain = 0
KAHS 240434Z 23005KT 13/M00 A2999 RMK A01 T01331004  RH  039%=      5-min Rain = 0
KAHS 240435Z 23005KT 13/M00 A2999 RMK A01 T01331004  RH  039%=      5-min Rain = 0
KAHS 240436Z 24005KT 13/M00 A2999 RMK A01 T01321004  RH  039%=      5-min Rain = 0
KAHS 240437Z 24005KT 13/M00 A2999 RMK A01 T01321004  RH  039%=      5-min Rain = 0
KAHS 240438Z 24005KT 13/M00 A2999 RMK A01 T01311004  RH  039%=      5-min Rain = 0
KAHS 240439Z 24005KT 13/M00 A2999 RMK A01 T01311004  RH  039%=      5-min Rain = 0
KAHS 240440Z 24005KT 13/M00 A2999 RMK A01 T01321004  RH  039%=      5-min Rain = 0
KAHS 240441Z 24005KT 13/M00 A2999 RMK A01 T01321004  RH  039%=      5-min Rain = 0
KAHS 240442Z 24005KT 13/M00 A2999 RMK A01 T01321004  RH  039%=      5-min Rain = 0
KAHS 240443Z 24005KT 13/M00 A2999 RMK A01 T01321004  RH  039%=      5-min Rain = 0
KAHS 240444Z 24005KT 13/M00 A2999 RMK A01 T01321004  RH  039%=      5-min Rain = 0
KAHS 240445Z 24005KT 13/M00 A2999 RMK A01 T01321003  RH  039%=      5-min Rain = 0
KAHS 240446Z 24005KT 13/M00 A2999 RMK A01 T01311003  RH  040%=      5-min Rain = 0
KAHS 240447Z 23005KT 13/M00 A2999 RMK A01 T01301002  RH  040%=      5-min Rain = 0
KAHS 240448Z 23006KT 13/M00 A2999 RMK A01 T01301002  RH  040%=      5-min Rain = 0
KAHS 240449Z 24006KT 13/M00 A2999 RMK A01 T01291002  RH  041%=      5-min Rain = 0
KAHS 240450Z 24006KT 13/M00 A2999 RMK A01 T01291002  RH  040%=      5-min Rain = 0
KAHS 240451Z 24006KT 13/M00 A2999 RMK A01 T01291002  RH  041%=      5-min Rain = 0
KAHS 240452Z 24006KT 13/M00 A2999 RMK A01 T01281002  RH  041%=      5-min Rain = 0
KAHS 240453Z 24006KT 13/M00 A2999 RMK A01 T01271001  RH  042%=      5-min Rain = 0
KAHS 240454Z 24005KT 13/M00 A2999 RMK A01 T01261001  RH  042%=      5-min Rain = 0
KAHS 240455Z 24005KT 13/M00 A2999 RMK A01 T01251001  RH  042%=      5-min Rain = 0
KAHS 240456Z 24006KT 13/M00 A2999 RMK A01 T01251001  RH  042%=      5-min Rain = 0
KAHS 240457Z 24006KT 13/00 A2999 RMK A01 T012500-0  RH  042%=      5-min Rain = 0
KAHS 240458Z 24006KT 13/00 A2999 RMK A01 T012500-0  RH  042%=      5-min Rain = 0
KAHS 240459Z 23006KT 13/00 A2999 RMK A01 T012500-0  RH  042%=      5-min Rain = 0

Page generated in 0.0833 seconds.